Mississippi River Lock and Dam 6
Open river conditions where all gates have been raised completely out of the water currently exist at the following St. Paul District Lock and Dam Locations:
Lock and Dam 10
| Parameter | Latest Value | Date |
|---|---|---|
| Pool (ft) : | 644.68 | 07 May 2026, 08:15 |
| Tailwater (ft) : | 642.51 | 07 May 2026, 08:15 |
| Flow-Out (cfs) : | 60800 | 07 May 2026, 08:15 |
| Air Temp (F) : | 36 | 07 May 2026, 08:15 |
| Water Temp (F) : | 54 | 07 May 2026, 08:15 |
| Wind Speed (mph) : | 131072 | 07 May 2026, 08:15 |
| Wind Dir (deg) : | 0 | 07 May 2026, 08:15 |
| Total 24 hr Precip. (in) : | 0.00 | 06 May 2026, 12:00 |
| Date/Time (UTC) | LockDam_06 Elev ft | LockDam_06-Tailwater Elev ft |
|---|---|---|
| May 7, 2026, 08:15 | 644.68 | 642.51 |
| May 7, 2026, 08:00 | 644.68 | 642.52 |
| May 7, 2026, 07:45 | 644.68 | 642.51 |
| May 7, 2026, 07:30 | 644.68 | 642.52 |
| May 7, 2026, 07:15 | 644.68 | 642.52 |
| May 7, 2026, 07:00 | 644.68 | 642.51 |
| May 7, 2026, 06:45 | 644.69 | 642.51 |
| May 7, 2026, 06:30 | 644.68 | 642.51 |
| May 7, 2026, 06:15 | 644.67 | 642.52 |
| May 7, 2026, 06:00 | 644.69 | 642.52 |
| May 7, 2026, 05:45 | 644.68 | 642.52 |
| May 7, 2026, 05:30 | 644.69 | 642.51 |
| May 7, 2026, 05:15 | 644.69 | 642.43 |
| May 7, 2026, 05:00 | 644.69 | 642.49 |
| May 7, 2026, 04:45 | 644.69 | 642.51 |
| May 7, 2026, 04:30 | 644.69 | 642.52 |
| May 7, 2026, 04:15 | 644.70 | 642.52 |
| May 7, 2026, 04:00 | 644.71 | 642.57 |
| May 7, 2026, 03:45 | 644.70 | 642.54 |
| May 7, 2026, 03:30 | 644.70 | 642.54 |
| May 7, 2026, 03:15 | 644.70 | 642.53 |
| May 7, 2026, 03:00 | 644.70 | 642.53 |
| May 7, 2026, 02:45 | 644.70 | 642.52 |
| May 7, 2026, 02:30 | 644.69 | 642.52 |
| May 7, 2026, 02:15 | 644.70 | 642.52 |
| May 7, 2026, 02:00 | 644.70 | 642.53 |
| May 7, 2026, 01:45 | 644.70 | 642.53 |
| May 7, 2026, 01:30 | 644.71 | 642.53 |
| May 7, 2026, 01:15 | 644.72 | 642.53 |
| May 7, 2026, 01:00 | 644.72 | 642.53 |
| May 7, 2026, 00:45 | 644.72 | 642.53 |
| May 7, 2026, 00:30 | 644.73 | 642.52 |
| May 7, 2026, 00:15 | 644.73 | 642.53 |
| May 6, 2026, 24:00 | 644.73 | 642.53 |
| May 6, 2026, 23:45 | 644.73 | 642.54 |
| May 6, 2026, 23:30 | 644.74 | 642.54 |
| May 6, 2026, 23:15 | 644.75 | 642.55 |
| May 6, 2026, 23:00 | 644.76 | 642.53 |
| May 6, 2026, 22:45 | 644.75 | 642.53 |
| May 6, 2026, 22:30 | 644.77 | 642.54 |
| May 6, 2026, 22:15 | 644.77 | 642.54 |
| May 6, 2026, 22:00 | 644.78 | 642.55 |
| May 6, 2026, 21:45 | 644.76 | 642.53 |
| May 6, 2026, 21:30 | 644.76 | 642.52 |
| May 6, 2026, 21:15 | 644.78 | 642.55 |
| May 6, 2026, 21:00 | 644.78 | 642.55 |
| May 6, 2026, 20:45 | 644.78 | 642.55 |
| May 6, 2026, 20:30 | 644.79 | 642.56 |
| May 6, 2026, 20:15 | 644.79 | 642.49 |
| May 6, 2026, 20:00 | 644.80 | 642.50 |
| May 6, 2026, 19:45 | 644.80 | 642.57 |
| May 6, 2026, 19:30 | 644.80 | 642.53 |
| May 6, 2026, 19:15 | 644.80 | 642.50 |
| May 6, 2026, 19:00 | 644.80 | 642.58 |
| May 6, 2026, 18:45 | 644.81 | 642.56 |
| May 6, 2026, 18:30 | 644.79 | 642.54 |
| May 6, 2026, 18:15 | 644.79 | 642.53 |
| May 6, 2026, 18:00 | 644.80 | 642.55 |
| May 6, 2026, 17:45 | 644.79 | 642.50 |
| May 6, 2026, 17:30 | 644.79 | 642.56 |
| May 6, 2026, 17:15 | 644.79 | 642.56 |
| May 6, 2026, 17:00 | 644.78 | 642.54 |
| May 6, 2026, 16:45 | 644.78 | 642.54 |
| May 6, 2026, 16:30 | 644.78 | 642.54 |
| May 6, 2026, 16:15 | 644.78 | 642.54 |
| May 6, 2026, 16:00 | 644.78 | 642.54 |
| May 6, 2026, 15:45 | 644.77 | 642.55 |
| May 6, 2026, 15:30 | 644.77 | 642.54 |
| May 6, 2026, 15:15 | 644.77 | 642.54 |
| May 6, 2026, 15:00 | 644.78 | 642.55 |
| May 6, 2026, 14:45 | 644.77 | 642.54 |
| May 6, 2026, 14:30 | 644.77 | 642.55 |
| May 6, 2026, 14:15 | 644.76 | 642.55 |
| May 6, 2026, 14:00 | 644.74 | 642.55 |
| May 6, 2026, 13:45 | 644.72 | 642.55 |
| May 6, 2026, 13:30 | 644.70 | 642.56 |
| May 6, 2026, 13:15 | 644.68 | 642.56 |
| May 6, 2026, 13:00 | 644.65 | 642.59 |
| May 6, 2026, 12:45 | 644.54 | 642.68 |
| May 6, 2026, 12:30 | 644.55 | 642.71 |
| May 6, 2026, 12:15 | 644.55 | 642.71 |
| May 6, 2026, 12:00 | 644.54 | 642.71 |
| May 6, 2026, 11:45 | 644.54 | 642.71 |
| May 6, 2026, 11:30 | 644.55 | 642.71 |
| May 6, 2026, 11:15 | 644.54 | 642.71 |
| May 6, 2026, 11:00 | 644.54 | 642.71 |
| May 6, 2026, 10:45 | 644.54 | 642.72 |
| May 6, 2026, 10:30 | 644.54 | 642.71 |
| May 6, 2026, 10:15 | 644.54 | 642.71 |
| May 6, 2026, 10:00 | 644.54 | 642.71 |
| May 6, 2026, 09:45 | 644.54 | 642.71 |
| May 6, 2026, 09:30 | 644.54 | 642.71 |
| May 6, 2026, 09:15 | 644.54 | 642.71 |
| May 6, 2026, 09:00 | 644.54 | 642.71 |
| May 6, 2026, 08:45 | 644.54 | 642.71 |
| May 6, 2026, 08:30 | 644.54 | 642.71 |
| May 6, 2026, 08:15 | 644.54 | 642.71 |
| May 6, 2026, 08:00 | 644.54 | 642.71 |
| May 6, 2026, 07:45 | 644.54 | 642.72 |
| May 6, 2026, 07:30 | 644.54 | 642.71 |
| May 6, 2026, 07:15 | 644.54 | 642.72 |
| May 6, 2026, 07:00 | 644.54 | 642.72 |
| May 6, 2026, 06:45 | 644.54 | 642.71 |
| May 6, 2026, 06:30 | 644.54 | 642.71 |
| May 6, 2026, 06:15 | 644.54 | 642.71 |
| May 6, 2026, 06:00 | 644.55 | 642.72 |
| May 6, 2026, 05:45 | 644.54 | 642.72 |
| May 6, 2026, 05:30 | 644.54 | 642.71 |
| May 6, 2026, 05:15 | 644.54 | 642.72 |
| May 6, 2026, 05:00 | 644.54 | 642.72 |
| May 6, 2026, 04:45 | 644.54 | 642.72 |
| May 6, 2026, 04:30 | 644.54 | 642.72 |
| May 6, 2026, 04:15 | 644.53 | 642.72 |
| May 6, 2026, 04:00 | 644.53 | 642.72 |
| May 6, 2026, 03:45 | 644.54 | 642.72 |
| May 6, 2026, 03:30 | 644.54 | 642.72 |
| May 6, 2026, 03:15 | 644.54 | 642.72 |
| May 6, 2026, 03:00 | 644.54 | 642.70 |
| May 6, 2026, 02:45 | 644.54 | 642.70 |
| May 6, 2026, 02:30 | 644.54 | 642.73 |
| May 6, 2026, 02:15 | 644.54 | 642.64 |
| May 6, 2026, 02:00 | 644.55 | 642.73 |
| May 6, 2026, 01:45 | 644.54 | 642.73 |
| May 6, 2026, 01:30 | 644.54 | 642.73 |
| May 6, 2026, 01:15 | 644.54 | 642.72 |
| May 6, 2026, 01:00 | 644.54 | 642.72 |
| May 6, 2026, 00:45 | 644.54 | 642.72 |
| May 6, 2026, 00:30 | 644.54 | 642.71 |
| May 6, 2026, 00:15 | 644.55 | 642.72 |
| May 5, 2026, 24:00 | 644.55 | 642.71 |
| May 5, 2026, 23:45 | 644.55 | 642.71 |
| May 5, 2026, 23:30 | 644.55 | 642.72 |
| May 5, 2026, 23:15 | 644.55 | 642.72 |
| May 5, 2026, 23:00 | 644.55 | 642.71 |
| May 5, 2026, 22:45 | 644.54 | 642.71 |
| May 5, 2026, 22:30 | 644.54 | 642.71 |
| May 5, 2026, 22:15 | 644.55 | 642.71 |
| May 5, 2026, 22:00 | 644.55 | 642.72 |
| May 5, 2026, 21:45 | 644.55 | 642.72 |
| May 5, 2026, 21:30 | 644.55 | 642.71 |
| May 5, 2026, 21:15 | 644.55 | 642.73 |
| May 5, 2026, 21:00 | 644.54 | 642.70 |
| May 5, 2026, 20:45 | 644.56 | 642.70 |
| May 5, 2026, 20:30 | 644.56 | 642.71 |
| May 5, 2026, 20:15 | 644.54 | 642.72 |
| May 5, 2026, 20:00 | 644.56 | 642.72 |
| May 5, 2026, 19:45 | 644.57 | 642.71 |
| May 5, 2026, 19:30 | 644.56 | 642.71 |
| May 5, 2026, 19:15 | 644.57 | 642.71 |
| May 5, 2026, 19:00 | 644.56 | 642.72 |
| May 5, 2026, 18:45 | 644.57 | 642.73 |
| May 5, 2026, 18:30 | 644.56 | 642.72 |
| May 5, 2026, 18:15 | 644.58 | 642.72 |
| May 5, 2026, 18:00 | 644.58 | 642.71 |
| May 5, 2026, 17:45 | 644.58 | 642.72 |
| May 5, 2026, 17:30 | 644.57 | 642.71 |
| May 5, 2026, 17:15 | 644.57 | 642.72 |
| May 5, 2026, 17:00 | 644.57 | 642.71 |
| May 5, 2026, 16:45 | 644.57 | 642.72 |
| May 5, 2026, 16:30 | 644.57 | 642.71 |
| May 5, 2026, 16:15 | 644.58 | 642.72 |
| May 5, 2026, 16:00 | 644.58 | 642.72 |
| May 5, 2026, 15:45 | 644.57 | 642.72 |
| May 5, 2026, 15:30 | 644.57 | 642.71 |
| May 5, 2026, 15:15 | 644.56 | 642.72 |
| May 5, 2026, 15:00 | 644.57 | 642.72 |
| May 5, 2026, 14:45 | 644.57 | 642.72 |
| May 5, 2026, 14:30 | 644.57 | 642.72 |
| May 5, 2026, 14:15 | 644.57 | 642.71 |
| May 5, 2026, 14:00 | 644.57 | 642.71 |
| May 5, 2026, 13:45 | 644.57 | 642.72 |
| May 5, 2026, 13:30 | 644.57 | 642.72 |
| May 5, 2026, 13:15 | 644.57 | 642.72 |
| May 5, 2026, 13:00 | 644.56 | 642.72 |
| May 5, 2026, 12:45 | 644.56 | 642.72 |
| May 5, 2026, 12:30 | 644.56 | 642.72 |
| May 5, 2026, 12:15 | 644.56 | 642.71 |
| May 5, 2026, 12:00 | 644.56 | 642.72 |
| May 5, 2026, 11:45 | 644.56 | 642.72 |
| May 5, 2026, 11:30 | 644.56 | 642.72 |
| May 5, 2026, 11:15 | 644.56 | 642.72 |
| May 5, 2026, 11:00 | 644.56 | 642.72 |
| May 5, 2026, 10:45 | 644.56 | 642.72 |
| May 5, 2026, 10:30 | 644.56 | 642.72 |
| May 5, 2026, 10:15 | 644.56 | 642.72 |
| May 5, 2026, 10:00 | 644.57 | 642.72 |
| May 5, 2026, 09:45 | 644.56 | 642.72 |
| May 5, 2026, 09:30 | 644.56 | 642.72 |
| May 5, 2026, 09:15 | 644.57 | 642.72 |
| May 5, 2026, 09:00 | 644.56 | 642.72 |
| May 5, 2026, 08:45 | 644.56 | 642.72 |
| May 5, 2026, 08:30 | 644.56 | 642.72 |
| May 5, 2026, 08:15 | 644.56 | 642.71 |
| May 5, 2026, 08:00 | 644.55 | 642.72 |
| May 5, 2026, 07:45 | 644.55 | 642.72 |
| May 5, 2026, 07:30 | 644.55 | 642.72 |
| May 5, 2026, 07:15 | 644.55 | 642.71 |
| May 5, 2026, 07:00 | 644.55 | 642.72 |
| May 5, 2026, 06:45 | 644.55 | 642.72 |
| May 5, 2026, 06:30 | 644.55 | 642.72 |
| May 5, 2026, 06:15 | 644.55 | 642.72 |
| May 5, 2026, 06:00 | 644.54 | 642.72 |
| May 5, 2026, 05:45 | 644.54 | 642.72 |
| May 5, 2026, 05:30 | 644.55 | 642.72 |
| May 5, 2026, 05:15 | 644.55 | 642.71 |
| May 5, 2026, 05:00 | 644.56 | 642.72 |
| May 5, 2026, 04:45 | 644.56 | 642.72 |
| May 5, 2026, 04:30 | 644.55 | 642.72 |
| May 5, 2026, 04:15 | 644.56 | 642.71 |
| May 5, 2026, 04:00 | 644.57 | 642.72 |
| May 5, 2026, 03:45 | 644.57 | 642.72 |
| May 5, 2026, 03:30 | 644.57 | 642.73 |
| May 5, 2026, 03:15 | 644.57 | 642.72 |
| May 5, 2026, 03:00 | 644.58 | 642.74 |
| May 5, 2026, 02:45 | 644.56 | 642.73 |
| May 5, 2026, 02:30 | 644.57 | 642.72 |
| May 5, 2026, 02:15 | 644.57 | 642.72 |
| May 5, 2026, 02:00 | 644.58 | 642.73 |
| May 5, 2026, 01:45 | 644.58 | 642.73 |
| May 5, 2026, 01:30 | 644.58 | 642.73 |
| May 5, 2026, 01:15 | 644.57 | 642.72 |
| May 5, 2026, 01:00 | 644.59 | 642.74 |
| May 5, 2026, 00:45 | 644.57 | 642.73 |
| May 5, 2026, 00:30 | 644.60 | 642.74 |
| May 5, 2026, 00:15 | 644.58 | 642.74 |
| May 4, 2026, 24:00 | 644.58 | 642.74 |
| May 4, 2026, 23:45 | 644.59 | 642.74 |
| May 4, 2026, 23:30 | 644.57 | 642.73 |
| May 4, 2026, 23:15 | 644.57 | 642.74 |
| May 4, 2026, 23:00 | 644.60 | 642.73 |
| May 4, 2026, 22:45 | 644.62 | 642.75 |
| May 4, 2026, 22:30 | 644.62 | 642.74 |
| May 4, 2026, 22:15 | 644.58 | 642.74 |
| May 4, 2026, 22:00 | 644.58 | 642.75 |
| May 4, 2026, 21:45 | 644.59 | 642.73 |
| May 4, 2026, 21:30 | 644.58 | 642.73 |
| May 4, 2026, 21:15 | 644.62 | 642.75 |
| May 4, 2026, 21:00 | 644.58 | 642.73 |
| May 4, 2026, 20:45 | 644.59 | 642.74 |
| May 4, 2026, 20:30 | 644.59 | 642.73 |
| May 4, 2026, 20:15 | 644.62 | 642.75 |
| May 4, 2026, 20:00 | 644.59 | 642.74 |
| May 4, 2026, 19:45 | 644.60 | 642.72 |
| May 4, 2026, 19:30 | 644.60 | 642.72 |
| May 4, 2026, 19:15 | 644.60 | 642.76 |
| May 4, 2026, 19:00 | 644.62 | 642.74 |
| May 4, 2026, 18:45 | 644.64 | 642.66 |
| May 4, 2026, 18:30 | 644.61 | 642.76 |
| May 4, 2026, 18:15 | 644.62 | 642.77 |
| May 4, 2026, 18:00 | 644.59 | 642.75 |
| May 4, 2026, 17:45 | 644.60 | 642.75 |
| May 4, 2026, 17:30 | 644.62 | 642.75 |
| May 4, 2026, 17:15 | 644.60 | 642.76 |
| May 4, 2026, 17:00 | 644.61 | 642.75 |
| May 4, 2026, 16:45 | 644.63 | 642.75 |
| May 4, 2026, 16:30 | 644.62 | 642.78 |
| May 4, 2026, 16:15 | 644.64 | 642.77 |
| May 4, 2026, 16:00 | 644.62 | 642.78 |
| May 4, 2026, 15:45 | 644.64 | 642.77 |
| May 4, 2026, 15:30 | 644.65 | 642.77 |
| May 4, 2026, 15:15 | 644.65 | 642.77 |
| May 4, 2026, 15:00 | 644.62 | 642.76 |
| May 4, 2026, 14:45 | 644.61 | 642.75 |
| May 4, 2026, 14:30 | 644.62 | 642.75 |
| May 4, 2026, 14:15 | 644.61 | 642.76 |
| May 4, 2026, 14:00 | 644.61 | 642.77 |
| May 4, 2026, 13:45 | 644.61 | 642.76 |
| May 4, 2026, 13:30 | 644.61 | 642.77 |
| May 4, 2026, 13:15 | 644.61 | 642.77 |
| May 4, 2026, 13:00 | 644.61 | 642.77 |
| May 4, 2026, 12:45 | 644.61 | 642.76 |
| May 4, 2026, 12:30 | 644.61 | 642.76 |
| May 4, 2026, 12:15 | 644.60 | 642.76 |
| May 4, 2026, 12:00 | 644.60 | 642.76 |
| May 4, 2026, 11:45 | 644.59 | 642.76 |
| May 4, 2026, 11:30 | 644.59 | 642.76 |
| May 4, 2026, 11:15 | 644.60 | 642.76 |
| May 4, 2026, 11:00 | 644.59 | 642.76 |
| May 4, 2026, 10:45 | 644.60 | 642.76 |
| May 4, 2026, 10:30 | 644.59 | 642.76 |
| May 4, 2026, 10:15 | 644.59 | 642.76 |
| May 4, 2026, 10:00 | 644.60 | 642.76 |
| May 4, 2026, 09:45 | 644.59 | 642.76 |
| May 4, 2026, 09:30 | 644.59 | 642.76 |
| May 4, 2026, 09:15 | 644.59 | 642.76 |
| May 4, 2026, 09:00 | 644.59 | 642.76 |
| May 4, 2026, 08:45 | 644.58 | 642.75 |
| May 4, 2026, 08:30 | 644.58 | 642.75 |
| May 4, 2026, 08:15 | 644.58 | 642.75 |
| May 4, 2026, 08:00 | 644.58 | 642.76 |
| May 4, 2026, 07:45 | 644.57 | 642.75 |
| May 4, 2026, 07:30 | 644.57 | 642.75 |
| May 4, 2026, 07:15 | 644.58 | 642.75 |
| May 4, 2026, 07:00 | 644.57 | 642.75 |
| May 4, 2026, 06:45 | 644.58 | 642.76 |
| May 4, 2026, 06:30 | 644.57 | 642.76 |
| May 4, 2026, 06:15 | 644.56 | 642.77 |
| May 4, 2026, 06:00 | 644.58 | 642.76 |
| May 4, 2026, 05:45 | 644.58 | 642.75 |
| May 4, 2026, 05:30 | 644.58 | 642.75 |
| May 4, 2026, 05:15 | 644.58 | 642.75 |
| May 4, 2026, 05:00 | 644.58 | 642.75 |
| May 4, 2026, 04:45 | 644.59 | 642.76 |
| May 4, 2026, 04:30 | 644.58 | 642.75 |
| May 4, 2026, 04:15 | 644.59 | 642.75 |
| May 4, 2026, 04:00 | 644.58 | 642.75 |
| May 4, 2026, 03:45 | 644.58 | 642.75 |
| May 4, 2026, 03:30 | 644.58 | 642.75 |
| May 4, 2026, 03:15 | 644.58 | 642.75 |
| May 4, 2026, 03:00 | 644.58 | 642.76 |
| May 4, 2026, 02:45 | 644.58 | 642.75 |
| May 4, 2026, 02:30 | 644.58 | 642.76 |
| May 4, 2026, 02:15 | 644.58 | 642.76 |
| May 4, 2026, 02:00 | 644.58 | 642.76 |
| May 4, 2026, 01:45 | 644.58 | 642.76 |
| May 4, 2026, 01:30 | 644.58 | 642.76 |
| May 4, 2026, 01:15 | 644.59 | 642.76 |
| May 4, 2026, 01:00 | 644.59 | 642.76 |
| May 4, 2026, 00:45 | 644.60 | 642.76 |
| May 4, 2026, 00:30 | 644.60 | 642.77 |
| May 4, 2026, 00:15 | 644.60 | 642.73 |
| May 3, 2026, 24:00 | 644.60 | 642.77 |
| May 3, 2026, 23:45 | 644.60 | 642.77 |
| May 3, 2026, 23:30 | 644.60 | 642.77 |
| May 3, 2026, 23:15 | 644.61 | 642.76 |
| May 3, 2026, 23:00 | 644.61 | 642.73 |
| May 3, 2026, 22:45 | 644.61 | 642.76 |
| May 3, 2026, 22:30 | 644.60 | 642.76 |
| May 3, 2026, 22:15 | 644.61 | 642.77 |
| May 3, 2026, 22:00 | 644.61 | 642.78 |
| May 3, 2026, 21:45 | 644.62 | 642.77 |
| May 3, 2026, 21:30 | 644.63 | 642.76 |
| May 3, 2026, 21:15 | 644.70 | 642.76 |
| May 3, 2026, 21:00 | 644.62 | 642.77 |
| May 3, 2026, 20:45 | 644.63 | 642.78 |
| May 3, 2026, 20:30 | 644.64 | 642.77 |
| May 3, 2026, 20:15 | 644.64 | 642.77 |
| May 3, 2026, 20:00 | 644.64 | 642.77 |
| May 3, 2026, 19:45 | 644.63 | 642.76 |
| May 3, 2026, 19:30 | 644.62 | 642.77 |
| May 3, 2026, 19:15 | 644.62 | 642.77 |
| May 3, 2026, 19:00 | 644.62 | 642.77 |
| May 3, 2026, 18:45 | 644.62 | 642.77 |
| May 3, 2026, 18:30 | 644.62 | 642.77 |
| May 3, 2026, 18:15 | 644.61 | 642.77 |
| May 3, 2026, 18:00 | 644.62 | 642.77 |
| May 3, 2026, 17:45 | 644.62 | 642.77 |
| May 3, 2026, 17:30 | 644.62 | 642.77 |
| May 3, 2026, 17:15 | 644.62 | 642.77 |
| May 3, 2026, 17:00 | 644.61 | 642.77 |
| May 3, 2026, 16:45 | 644.61 | 642.79 |
| May 3, 2026, 16:30 | 644.61 | 642.77 |
| May 3, 2026, 16:15 | 644.61 | 642.77 |
| May 3, 2026, 16:00 | 644.61 | 642.77 |
| May 3, 2026, 15:45 | 644.61 | 642.76 |
| May 3, 2026, 15:30 | 644.61 | 642.76 |
| May 3, 2026, 15:15 | 644.60 | 642.76 |
| May 3, 2026, 15:00 | 644.60 | 642.75 |
| May 3, 2026, 14:45 | 644.61 | 642.77 |
| May 3, 2026, 14:30 | 644.60 | 642.76 |
| May 3, 2026, 14:15 | 644.59 | 642.76 |
| May 3, 2026, 14:00 | 644.59 | 642.76 |
| May 3, 2026, 13:45 | 644.59 | 642.75 |
| May 3, 2026, 13:30 | 644.60 | 642.75 |
| May 3, 2026, 13:15 | 644.61 | 642.75 |
| May 3, 2026, 13:00 | 644.62 | 642.73 |
| May 3, 2026, 12:45 | 644.64 | 642.69 |
| May 3, 2026, 12:30 | 644.63 | 642.69 |
| May 3, 2026, 12:15 | 644.63 | 642.68 |
| May 3, 2026, 12:00 | 644.63 | 642.69 |
| May 3, 2026, 11:45 | 644.63 | 642.69 |
| May 3, 2026, 11:30 | 644.63 | 642.69 |
| May 3, 2026, 11:15 | 644.63 | 642.69 |
| May 3, 2026, 11:00 | 644.63 | 642.70 |
| May 3, 2026, 10:45 | 644.63 | 642.68 |
| May 3, 2026, 10:30 | 644.63 | 642.69 |
| May 3, 2026, 10:15 | 644.63 | 642.68 |
| May 3, 2026, 10:00 | 644.62 | 642.68 |
| May 3, 2026, 09:45 | 644.62 | 642.68 |
| May 3, 2026, 09:30 | 644.61 | 642.67 |
| May 3, 2026, 09:15 | 644.61 | 642.67 |
| May 3, 2026, 09:00 | 644.60 | 642.66 |
| May 3, 2026, 08:45 | 644.62 | 642.67 |
| May 3, 2026, 08:30 | 644.60 | 642.66 |
| May 3, 2026, 08:15 | 644.59 | 642.65 |
| May 3, 2026, 08:00 | 644.60 | 642.64 |
| May 3, 2026, 07:45 | 644.60 | 642.64 |
| May 3, 2026, 07:30 | 644.59 | 642.65 |
| May 3, 2026, 07:15 | 644.58 | 642.66 |
| May 3, 2026, 07:00 | 644.59 | 642.67 |
| May 3, 2026, 06:45 | 644.58 | 642.66 |
| May 3, 2026, 06:30 | 644.57 | 642.65 |
| May 3, 2026, 06:15 | 644.57 | 642.64 |
| May 3, 2026, 06:00 | 644.56 | 642.63 |
| May 3, 2026, 05:45 | 644.56 | 642.63 |
| May 3, 2026, 05:30 | 644.56 | 642.63 |
| May 3, 2026, 05:15 | 644.55 | 642.62 |
| May 3, 2026, 05:00 | 644.55 | 642.62 |
| May 3, 2026, 04:45 | 644.55 | 642.62 |
| May 3, 2026, 04:30 | 644.54 | 642.61 |
| May 3, 2026, 04:15 | 644.54 | 642.61 |
| May 3, 2026, 04:00 | 644.53 | 642.61 |
| May 3, 2026, 03:45 | 644.53 | 642.61 |
| May 3, 2026, 03:30 | 644.52 | 642.61 |
| May 3, 2026, 03:15 | 644.52 | 642.61 |
| May 3, 2026, 03:00 | 644.52 | 642.60 |
| May 3, 2026, 02:45 | 644.51 | 642.60 |
| May 3, 2026, 02:30 | 644.51 | 642.60 |
| May 3, 2026, 02:15 | 644.50 | 642.59 |
| May 3, 2026, 02:00 | 644.50 | 642.59 |
| May 3, 2026, 01:45 | 644.49 | 642.59 |
| May 3, 2026, 01:30 | 644.49 | 642.59 |
| May 3, 2026, 01:15 | 644.49 | 642.59 |
| May 3, 2026, 01:00 | 644.48 | 642.58 |
| May 3, 2026, 00:45 | 644.48 | 642.58 |
| May 3, 2026, 00:30 | 644.47 | 642.58 |
| May 3, 2026, 00:15 | 644.47 | 642.57 |
| May 2, 2026, 24:00 | 644.47 | 642.58 |
| May 2, 2026, 23:45 | 644.46 | 642.57 |
| May 2, 2026, 23:30 | 644.47 | 642.57 |
| May 2, 2026, 23:15 | 644.46 | 642.56 |
| May 2, 2026, 23:00 | 644.47 | 642.57 |
| May 2, 2026, 22:45 | 644.45 | 642.56 |
| May 2, 2026, 22:30 | 644.45 | 642.56 |
| May 2, 2026, 22:15 | 644.45 | 642.55 |
| May 2, 2026, 22:00 | 644.45 | M |
| May 2, 2026, 21:45 | 644.45 | 642.48 |
| May 2, 2026, 21:30 | 644.45 | 642.55 |
| May 2, 2026, 21:15 | 644.45 | 642.55 |
| May 2, 2026, 21:00 | 644.43 | M |
| May 2, 2026, 20:45 | 644.42 | 642.55 |
| May 2, 2026, 20:30 | 644.45 | 642.55 |
| May 2, 2026, 20:15 | 644.44 | 642.55 |
| May 2, 2026, 20:00 | 644.45 | 642.55 |
| May 2, 2026, 19:45 | 644.45 | 642.54 |
| May 2, 2026, 19:30 | 644.45 | 642.54 |
| May 2, 2026, 19:15 | 644.44 | 642.55 |
| May 2, 2026, 19:00 | 644.43 | 642.53 |
| May 2, 2026, 18:45 | 644.43 | 642.53 |
| May 2, 2026, 18:30 | 644.42 | 642.53 |
| May 2, 2026, 18:15 | 644.43 | 642.54 |
| May 2, 2026, 18:00 | 644.43 | 642.53 |
| May 2, 2026, 17:45 | 644.42 | 642.52 |
| May 2, 2026, 17:30 | 644.42 | 642.52 |
| May 2, 2026, 17:15 | 644.42 | 642.52 |
| May 2, 2026, 17:00 | 644.42 | 642.52 |
| May 2, 2026, 16:45 | 644.42 | 642.52 |
| May 2, 2026, 16:30 | 644.42 | 642.52 |
| May 2, 2026, 16:15 | 644.42 | 642.52 |
| May 2, 2026, 16:00 | 644.42 | 642.52 |
| May 2, 2026, 15:45 | 644.42 | 642.52 |
| May 2, 2026, 15:30 | 644.41 | 642.52 |
| May 2, 2026, 15:15 | 644.42 | 642.52 |
| May 2, 2026, 15:00 | 644.41 | 642.52 |
| May 2, 2026, 14:45 | 644.41 | 642.52 |
| May 2, 2026, 14:30 | 644.43 | 642.52 |
| May 2, 2026, 14:15 | 644.44 | 642.52 |
| May 2, 2026, 14:00 | 644.45 | 642.52 |
| May 2, 2026, 13:45 | 644.46 | 642.51 |
| May 2, 2026, 13:30 | 644.47 | 642.50 |
| May 2, 2026, 13:15 | 644.58 | 642.42 |
| May 2, 2026, 13:00 | 644.57 | 642.40 |
| May 2, 2026, 12:45 | 644.58 | 642.40 |
| May 2, 2026, 12:30 | 644.57 | 642.40 |
| May 2, 2026, 12:15 | 644.58 | 642.40 |
| May 2, 2026, 12:00 | 644.57 | 642.40 |
| May 2, 2026, 11:45 | 644.56 | 642.40 |
| May 2, 2026, 11:30 | 644.56 | 642.40 |
| May 2, 2026, 11:15 | 644.56 | 642.40 |
| May 2, 2026, 11:00 | 644.56 | 642.40 |
| May 2, 2026, 10:45 | 644.57 | 642.40 |
| May 2, 2026, 10:30 | 644.57 | 642.39 |
| May 2, 2026, 10:15 | 644.57 | 642.39 |
| May 2, 2026, 10:00 | 644.56 | 642.39 |
| May 2, 2026, 09:45 | 644.56 | 642.39 |
| May 2, 2026, 09:30 | 644.56 | 642.39 |
| May 2, 2026, 09:15 | 644.55 | 642.39 |
| May 2, 2026, 09:00 | 644.55 | 642.39 |
| May 2, 2026, 08:45 | 644.55 | 642.39 |
| May 2, 2026, 08:30 | 644.55 | 642.39 |
| May 2, 2026, 08:15 | 644.55 | 642.39 |
| May 2, 2026, 08:00 | 644.55 | 642.39 |
| May 2, 2026, 07:45 | 644.55 | 642.39 |
| May 2, 2026, 07:30 | 644.56 | 642.39 |
| May 2, 2026, 07:15 | 644.55 | 642.39 |
| May 2, 2026, 07:00 | 644.55 | 642.40 |
| May 2, 2026, 06:45 | 644.55 | 642.39 |
| May 2, 2026, 06:30 | 644.55 | 642.39 |
| May 2, 2026, 06:15 | 644.54 | 642.38 |
| May 2, 2026, 06:00 | 644.55 | 642.40 |
| May 2, 2026, 05:45 | 644.55 | 642.38 |
| May 2, 2026, 05:30 | 644.55 | 642.36 |
| May 2, 2026, 05:15 | 644.55 | 642.40 |
| May 2, 2026, 05:00 | 644.55 | 642.40 |
| May 2, 2026, 04:45 | 644.54 | 642.39 |
| May 2, 2026, 04:30 | 644.54 | 642.39 |
| May 2, 2026, 04:15 | 644.54 | 642.38 |
| May 2, 2026, 04:00 | 644.53 | 642.38 |
| May 2, 2026, 03:45 | 644.54 | 642.38 |
| May 2, 2026, 03:30 | 644.53 | 642.38 |
| May 2, 2026, 03:15 | 644.53 | 642.38 |
| May 2, 2026, 03:00 | 644.52 | 642.38 |
| May 2, 2026, 02:45 | 644.52 | 642.38 |
| May 2, 2026, 02:30 | 644.52 | 642.38 |
| May 2, 2026, 02:15 | 644.52 | 642.38 |
| May 2, 2026, 02:00 | 644.52 | 642.38 |
| May 2, 2026, 01:45 | 644.51 | 642.38 |
| May 2, 2026, 01:30 | 644.52 | 642.37 |
| May 2, 2026, 01:15 | 644.52 | 642.37 |
| May 2, 2026, 01:00 | 644.52 | 642.37 |
| May 2, 2026, 00:45 | 644.52 | 642.38 |
| May 2, 2026, 00:30 | 644.50 | 642.38 |
| May 2, 2026, 00:15 | 644.52 | 642.37 |
| May 1, 2026, 24:00 | 644.53 | 642.37 |
| May 1, 2026, 23:45 | 644.51 | 642.36 |
| May 1, 2026, 23:30 | 644.53 | 642.39 |
| May 1, 2026, 23:15 | 644.52 | 642.35 |
| May 1, 2026, 23:00 | 644.52 | 642.35 |
| May 1, 2026, 22:45 | 644.51 | 642.37 |
| May 1, 2026, 22:30 | 644.53 | 642.39 |
| May 1, 2026, 22:15 | 644.52 | 642.39 |
| May 1, 2026, 22:00 | 644.52 | 642.37 |
| May 1, 2026, 21:45 | 644.51 | 642.37 |
| May 1, 2026, 21:30 | 644.51 | 642.36 |
| May 1, 2026, 21:15 | 644.52 | 642.36 |
| May 1, 2026, 21:00 | 644.51 | 642.37 |
| May 1, 2026, 20:45 | 644.50 | 642.36 |
| May 1, 2026, 20:30 | 644.51 | 642.36 |
| May 1, 2026, 20:15 | 644.51 | 642.36 |
| May 1, 2026, 20:00 | 644.51 | 642.36 |
| May 1, 2026, 19:45 | 644.51 | 642.36 |
| May 1, 2026, 19:30 | 644.51 | 642.36 |
| May 1, 2026, 19:15 | 644.50 | 642.36 |
| May 1, 2026, 19:00 | 644.50 | 642.36 |
| May 1, 2026, 18:45 | 644.49 | 642.35 |
| May 1, 2026, 18:30 | 644.50 | 642.35 |
| May 1, 2026, 18:15 | 644.50 | 642.36 |
| May 1, 2026, 18:00 | 644.50 | 642.35 |
| May 1, 2026, 17:45 | 644.50 | 642.36 |
| May 1, 2026, 17:30 | 644.50 | 642.35 |
| May 1, 2026, 17:15 | 644.51 | 642.36 |
| May 1, 2026, 17:00 | 644.51 | 642.35 |
| May 1, 2026, 16:45 | 644.50 | 642.35 |
| May 1, 2026, 16:30 | 644.50 | 642.35 |
| May 1, 2026, 16:15 | 644.50 | 642.35 |
| May 1, 2026, 16:00 | 644.49 | 642.35 |
| May 1, 2026, 15:45 | 644.50 | 642.35 |
| May 1, 2026, 15:30 | 644.49 | 642.35 |
| May 1, 2026, 15:15 | 644.50 | 642.35 |
| May 1, 2026, 15:00 | 644.49 | 642.35 |
| May 1, 2026, 14:45 | 644.48 | 642.35 |
| May 1, 2026, 14:30 | 644.47 | 642.35 |
| May 1, 2026, 14:15 | 644.47 | 642.35 |
| May 1, 2026, 14:00 | 644.47 | 642.35 |
| May 1, 2026, 13:45 | 644.48 | 642.35 |
| May 1, 2026, 13:30 | 644.48 | 642.34 |
| May 1, 2026, 13:15 | 644.48 | 642.34 |
| May 1, 2026, 13:00 | 644.48 | 642.34 |
| May 1, 2026, 12:45 | 644.48 | 642.34 |
| May 1, 2026, 12:30 | 644.47 | 642.34 |
| May 1, 2026, 12:15 | 644.47 | 642.34 |
| May 1, 2026, 12:00 | 644.46 | 642.34 |
| May 1, 2026, 11:45 | 644.46 | 642.34 |
| May 1, 2026, 11:30 | 644.46 | 642.34 |
| May 1, 2026, 11:15 | 644.46 | 642.34 |
| May 1, 2026, 11:00 | 644.45 | 642.34 |
| May 1, 2026, 10:45 | 644.46 | 642.34 |
| May 1, 2026, 10:30 | 644.46 | 642.33 |
| May 1, 2026, 10:15 | 644.46 | 642.33 |
| May 1, 2026, 10:00 | 644.46 | 642.33 |
| May 1, 2026, 09:45 | 644.46 | 642.33 |
| May 1, 2026, 09:30 | 644.46 | 642.34 |
| May 1, 2026, 09:15 | 644.46 | 642.34 |
| May 1, 2026, 09:00 | 644.46 | 642.33 |
| May 1, 2026, 08:45 | 644.46 | 642.33 |
| May 1, 2026, 08:30 | 644.46 | 642.33 |
| May 1, 2026, 08:15 | 644.48 | 642.34 |
| May 1, 2026, 08:00 | 644.46 | 642.34 |
| May 1, 2026, 07:45 | 644.48 | 642.33 |
| May 1, 2026, 07:30 | 644.48 | 642.33 |
| May 1, 2026, 07:15 | 644.49 | 642.37 |
| May 1, 2026, 07:00 | 644.49 | 642.33 |
| May 1, 2026, 06:45 | 644.50 | 642.37 |
| May 1, 2026, 06:30 | 644.50 | 642.27 |
| May 1, 2026, 06:15 | 644.51 | 642.36 |
| May 1, 2026, 06:00 | 644.51 | 642.34 |
| May 1, 2026, 05:45 | 644.51 | 642.33 |
| May 1, 2026, 05:30 | 644.52 | 642.32 |
| May 1, 2026, 05:15 | 644.53 | 642.31 |
| May 1, 2026, 05:00 | 644.54 | 642.31 |
| May 1, 2026, 04:45 | 644.55 | 642.30 |
| May 1, 2026, 04:30 | 644.58 | 642.28 |
| May 1, 2026, 04:15 | 644.63 | 642.23 |
| May 1, 2026, 04:00 | 644.66 | 642.16 |
| May 1, 2026, 03:45 | 644.65 | 642.16 |
| May 1, 2026, 03:30 | 644.66 | 642.16 |
| May 1, 2026, 03:15 | 644.65 | 642.16 |
| May 1, 2026, 03:00 | 644.65 | 642.16 |
| May 1, 2026, 02:45 | 644.65 | 642.16 |
| May 1, 2026, 02:30 | 644.65 | 642.16 |
| May 1, 2026, 02:15 | 644.65 | 642.16 |
| May 1, 2026, 02:00 | 644.65 | 642.16 |
| May 1, 2026, 01:45 | 644.66 | 642.16 |
| May 1, 2026, 01:30 | 644.67 | 642.16 |
| May 1, 2026, 01:15 | 644.67 | 642.15 |
| May 1, 2026, 01:00 | 644.67 | 642.15 |
| May 1, 2026, 00:45 | 644.67 | 642.15 |
| May 1, 2026, 00:30 | 644.68 | 642.16 |
| May 1, 2026, 00:15 | 644.68 | 642.16 |
| April 30, 2026, 24:00 | 644.68 | 642.15 |
| April 30, 2026, 23:45 | 644.68 | 642.15 |
| April 30, 2026, 23:30 | 644.67 | 642.15 |
| April 30, 2026, 23:15 | 644.67 | 642.15 |
| April 30, 2026, 23:00 | 644.68 | 642.15 |
| April 30, 2026, 22:45 | 644.67 | 642.15 |
| April 30, 2026, 22:30 | 644.68 | 642.16 |
| April 30, 2026, 22:15 | 644.68 | 642.16 |
| April 30, 2026, 22:00 | 644.68 | 642.16 |
| April 30, 2026, 21:45 | 644.68 | 642.16 |
| April 30, 2026, 21:30 | 644.68 | 642.16 |
| April 30, 2026, 21:15 | 644.67 | 642.16 |
| April 30, 2026, 21:00 | 644.68 | 642.16 |
| April 30, 2026, 20:45 | 644.69 | 642.16 |
| April 30, 2026, 20:30 | 644.67 | 642.17 |
| April 30, 2026, 20:15 | 644.69 | 642.16 |
| April 30, 2026, 20:00 | 644.69 | 642.17 |
| April 30, 2026, 19:45 | 644.69 | 642.17 |
| April 30, 2026, 19:30 | 644.69 | 642.16 |
| April 30, 2026, 19:15 | 644.69 | 642.17 |
| April 30, 2026, 19:00 | 644.70 | 642.17 |
| April 30, 2026, 18:45 | 644.69 | 642.16 |
| April 30, 2026, 18:30 | 644.70 | 642.17 |
| April 30, 2026, 18:15 | 644.70 | 642.17 |
| April 30, 2026, 18:00 | 644.69 | 642.17 |
| April 30, 2026, 17:45 | 644.68 | 642.17 |
| April 30, 2026, 17:30 | 644.69 | 642.17 |
| April 30, 2026, 17:15 | 644.72 | 642.17 |
| April 30, 2026, 17:00 | 644.71 | 642.17 |
| April 30, 2026, 16:45 | 644.71 | 642.17 |
| April 30, 2026, 16:30 | 644.71 | 642.17 |
| April 30, 2026, 16:15 | 644.70 | 642.17 |
| April 30, 2026, 16:00 | 644.71 | 642.17 |
| April 30, 2026, 15:45 | 644.71 | 642.17 |
| April 30, 2026, 15:30 | 644.71 | 642.17 |
| April 30, 2026, 15:15 | 644.71 | 642.18 |
| April 30, 2026, 15:00 | 644.71 | 642.17 |
| April 30, 2026, 14:45 | 644.71 | 642.17 |
| April 30, 2026, 14:30 | 644.70 | 642.17 |
| April 30, 2026, 14:15 | 644.70 | 642.17 |
| April 30, 2026, 14:00 | 644.69 | 642.18 |
| April 30, 2026, 13:45 | 644.70 | 642.18 |
| April 30, 2026, 13:30 | 644.70 | 642.18 |
| April 30, 2026, 13:15 | 644.70 | 642.18 |
| April 30, 2026, 13:00 | 644.69 | 642.18 |
| April 30, 2026, 12:45 | 644.70 | 642.18 |
| April 30, 2026, 12:30 | 644.69 | 642.18 |
| April 30, 2026, 12:15 | 644.70 | 642.18 |
| April 30, 2026, 12:00 | 644.69 | 642.18 |
| April 30, 2026, 11:45 | 644.70 | 642.18 |
| April 30, 2026, 11:30 | 644.69 | 642.18 |
| April 30, 2026, 11:15 | 644.70 | 642.18 |
| April 30, 2026, 11:00 | 644.69 | 642.18 |
| April 30, 2026, 10:45 | 644.69 | 642.18 |
| April 30, 2026, 10:30 | 644.69 | 642.18 |
| April 30, 2026, 10:15 | 644.69 | 642.18 |
| April 30, 2026, 10:00 | 644.69 | 642.18 |
| April 30, 2026, 09:45 | 644.70 | 642.18 |
| April 30, 2026, 09:30 | 644.70 | 642.18 |
| April 30, 2026, 09:15 | 644.70 | 642.18 |
| April 30, 2026, 09:00 | 644.70 | 642.18 |
| Date/Time (UTC) | LockDam_06 Flow cfs |
|---|---|
| May 7, 2026, 08:15 | 60800 |
| May 7, 2026, 08:00 | 60700 |
| May 7, 2026, 07:45 | 60800 |
| May 7, 2026, 07:30 | 60700 |
| May 7, 2026, 07:15 | 60700 |
| May 7, 2026, 07:00 | 60800 |
| May 7, 2026, 06:45 | 61000 |
| May 7, 2026, 06:30 | 60800 |
| May 7, 2026, 06:15 | 60600 |
| May 7, 2026, 06:00 | 60800 |
| May 7, 2026, 05:45 | 60700 |
| May 7, 2026, 05:30 | 61000 |
| May 7, 2026, 05:15 | 62100 |
| May 7, 2026, 05:00 | 61300 |
| May 7, 2026, 04:45 | 61000 |
| May 7, 2026, 04:30 | 60800 |
| May 7, 2026, 04:15 | 61000 |
| May 7, 2026, 04:00 | 60400 |
| May 7, 2026, 03:45 | 60700 |
| May 7, 2026, 03:30 | 60700 |
| May 7, 2026, 03:15 | 60800 |
| May 7, 2026, 03:00 | 60800 |
| May 7, 2026, 02:45 | 61000 |
| May 7, 2026, 02:30 | 60800 |
| May 7, 2026, 02:15 | 61000 |
| May 7, 2026, 02:00 | 60800 |
| May 7, 2026, 01:45 | 60800 |
| May 7, 2026, 01:30 | 61000 |
| May 7, 2026, 01:15 | 61100 |
| May 7, 2026, 01:00 | 61100 |
| May 7, 2026, 00:45 | 61100 |
| May 7, 2026, 00:30 | 61400 |
| May 7, 2026, 00:15 | 61300 |
| May 6, 2026, 24:00 | 61300 |
| May 6, 2026, 23:45 | 61100 |
| May 6, 2026, 23:30 | 61300 |
| May 6, 2026, 23:15 | 61300 |
| May 6, 2026, 23:00 | 61700 |
| May 6, 2026, 22:45 | 61500 |
| May 6, 2026, 22:30 | 61700 |
| May 6, 2026, 22:15 | 61700 |
| May 6, 2026, 22:00 | 61700 |
| May 6, 2026, 21:45 | 61700 |
| May 6, 2026, 21:30 | 61800 |
| May 6, 2026, 21:15 | 61700 |
| May 6, 2026, 21:00 | 61700 |
| May 6, 2026, 20:45 | 61700 |
| May 6, 2026, 20:30 | 61700 |
| May 6, 2026, 20:15 | 62700 |
| May 6, 2026, 20:00 | 62700 |
| May 6, 2026, 19:45 | 61700 |
| May 6, 2026, 19:30 | 62200 |
| May 6, 2026, 19:15 | 62700 |
| May 6, 2026, 19:00 | 61500 |
| May 6, 2026, 18:45 | 62000 |
| May 6, 2026, 18:30 | 62000 |
| May 6, 2026, 18:15 | 62100 |
| May 6, 2026, 18:00 | 62000 |
| May 6, 2026, 17:45 | 62500 |
| May 6, 2026, 17:30 | 61700 |
| May 6, 2026, 17:15 | 61700 |
| May 6, 2026, 17:00 | 61800 |
| May 6, 2026, 16:45 | 61800 |
| May 6, 2026, 16:30 | 61800 |
| May 6, 2026, 16:15 | 61800 |
| May 6, 2026, 16:00 | 61800 |
| May 6, 2026, 15:45 | 61500 |
| May 6, 2026, 15:30 | 61700 |
| May 6, 2026, 15:15 | 61700 |
| May 6, 2026, 15:00 | 61700 |
| May 6, 2026, 14:45 | 61700 |
| May 6, 2026, 14:30 | 61500 |
| May 6, 2026, 14:15 | 61400 |
| May 6, 2026, 14:00 | 61100 |
| May 6, 2026, 13:45 | 60800 |
| May 6, 2026, 13:30 | 60400 |
| May 6, 2026, 13:15 | 60100 |
| May 6, 2026, 13:00 | 59300 |
| May 6, 2026, 12:45 | 56900 |
| May 6, 2026, 12:30 | 62200 |
| May 6, 2026, 12:15 | 62200 |
| May 6, 2026, 12:00 | 62000 |
| May 6, 2026, 11:45 | 62000 |
| May 6, 2026, 11:30 | 62200 |
| May 6, 2026, 11:15 | 62000 |
| May 6, 2026, 11:00 | 62000 |
| May 6, 2026, 10:45 | 61900 |
| May 6, 2026, 10:30 | 62000 |
| May 6, 2026, 10:15 | 62000 |
| May 6, 2026, 10:00 | 62000 |
| May 6, 2026, 09:45 | 62000 |
| May 6, 2026, 09:30 | 62000 |
| May 6, 2026, 09:15 | 62000 |
| May 6, 2026, 09:00 | 62000 |
| May 6, 2026, 08:45 | 62000 |
| May 6, 2026, 08:30 | 62000 |
| May 6, 2026, 08:15 | 62000 |
| May 6, 2026, 08:00 | 62000 |
| May 6, 2026, 07:45 | 61900 |
| May 6, 2026, 07:30 | 62000 |
| May 6, 2026, 07:15 | 61900 |
| May 6, 2026, 07:00 | 61900 |
| May 6, 2026, 06:45 | 62000 |
| May 6, 2026, 06:30 | 62000 |
| May 6, 2026, 06:15 | 62000 |
| May 6, 2026, 06:00 | 62000 |
| May 6, 2026, 05:45 | 61900 |
| May 6, 2026, 05:30 | 62000 |
| May 6, 2026, 05:15 | 61900 |
| May 6, 2026, 05:00 | 61900 |
| May 6, 2026, 04:45 | 61900 |
| May 6, 2026, 04:30 | 61900 |
| May 6, 2026, 04:15 | 61700 |
| May 6, 2026, 04:00 | 61700 |
| May 6, 2026, 03:45 | 61900 |
| May 6, 2026, 03:30 | 61900 |
| May 6, 2026, 03:15 | 61900 |
| May 6, 2026, 03:00 | 62100 |
| May 6, 2026, 02:45 | 62100 |
| May 6, 2026, 02:30 | 61700 |
| May 6, 2026, 02:15 | 63100 |
| May 6, 2026, 02:00 | 61900 |
| May 6, 2026, 01:45 | 61700 |
| May 6, 2026, 01:30 | 61700 |
| May 6, 2026, 01:15 | 61900 |
| May 6, 2026, 01:00 | 61900 |
| May 6, 2026, 00:45 | 61900 |
| May 6, 2026, 00:30 | 62000 |
| May 6, 2026, 00:15 | 62000 |
| May 5, 2026, 24:00 | 62200 |
| May 5, 2026, 23:45 | 62200 |
| May 5, 2026, 23:30 | 62000 |
| May 5, 2026, 23:15 | 62000 |
| May 5, 2026, 23:00 | 62200 |
| May 5, 2026, 22:45 | 62000 |
| May 5, 2026, 22:30 | 62000 |
| May 5, 2026, 22:15 | 62200 |
| May 5, 2026, 22:00 | 62000 |
| May 5, 2026, 21:45 | 62000 |
| May 5, 2026, 21:30 | 62200 |
| May 5, 2026, 21:15 | 61900 |
| May 5, 2026, 21:00 | 62100 |
| May 5, 2026, 20:45 | 62500 |
| May 5, 2026, 20:30 | 62300 |
| May 5, 2026, 20:15 | 61900 |
| May 5, 2026, 20:00 | 62200 |
| May 5, 2026, 19:45 | 62500 |
| May 5, 2026, 19:30 | 62300 |
| May 5, 2026, 19:15 | 62500 |
| May 5, 2026, 19:00 | 62200 |
| May 5, 2026, 18:45 | 62200 |
| May 5, 2026, 18:30 | 62200 |
| May 5, 2026, 18:15 | 62500 |
| May 5, 2026, 18:00 | 62700 |
| May 5, 2026, 17:45 | 62500 |
| May 5, 2026, 17:30 | 62500 |
| May 5, 2026, 17:15 | 62300 |
| May 5, 2026, 17:00 | 62500 |
| May 5, 2026, 16:45 | 62300 |
| May 5, 2026, 16:30 | 62500 |
| May 5, 2026, 16:15 | 62500 |
| May 5, 2026, 16:00 | 62500 |
| May 5, 2026, 15:45 | 62300 |
| May 5, 2026, 15:30 | 62500 |
| May 5, 2026, 15:15 | 62200 |
| May 5, 2026, 15:00 | 62300 |
| May 5, 2026, 14:45 | 62300 |
| May 5, 2026, 14:30 | 62300 |
| May 5, 2026, 14:15 | 62500 |
| May 5, 2026, 14:00 | 62500 |
| May 5, 2026, 13:45 | 62300 |
| May 5, 2026, 13:30 | 62300 |
| May 5, 2026, 13:15 | 62300 |
| May 5, 2026, 13:00 | 62200 |
| May 5, 2026, 12:45 | 62200 |
| May 5, 2026, 12:30 | 62200 |
| May 5, 2026, 12:15 | 62300 |
| May 5, 2026, 12:00 | 62200 |
| May 5, 2026, 11:45 | 62200 |
| May 5, 2026, 11:30 | 62200 |
| May 5, 2026, 11:15 | 62200 |
| May 5, 2026, 11:00 | 62200 |
| May 5, 2026, 10:45 | 62200 |
| May 5, 2026, 10:30 | 62200 |
| May 5, 2026, 10:15 | 62200 |
| May 5, 2026, 10:00 | 62300 |
| May 5, 2026, 09:45 | 62200 |
| May 5, 2026, 09:30 | 62200 |
| May 5, 2026, 09:15 | 62300 |
| May 5, 2026, 09:00 | 62200 |
| May 5, 2026, 08:45 | 62200 |
| May 5, 2026, 08:30 | 62200 |
| May 5, 2026, 08:15 | 62300 |
| May 5, 2026, 08:00 | 62000 |
| May 5, 2026, 07:45 | 62000 |
| May 5, 2026, 07:30 | 62000 |
| May 5, 2026, 07:15 | 62200 |
| May 5, 2026, 07:00 | 62000 |
| May 5, 2026, 06:45 | 62000 |
| May 5, 2026, 06:30 | 62000 |
| May 5, 2026, 06:15 | 62000 |
| May 5, 2026, 06:00 | 61900 |
| May 5, 2026, 05:45 | 61900 |
| May 5, 2026, 05:30 | 62000 |
| May 5, 2026, 05:15 | 62200 |
| May 5, 2026, 05:00 | 62200 |
| May 5, 2026, 04:45 | 62200 |
| May 5, 2026, 04:30 | 62000 |
| May 5, 2026, 04:15 | 62300 |
| May 5, 2026, 04:00 | 62300 |
| May 5, 2026, 03:45 | 62300 |
| May 5, 2026, 03:30 | 62200 |
| May 5, 2026, 03:15 | 62300 |
| May 5, 2026, 03:00 | 62200 |
| May 5, 2026, 02:45 | 62000 |
| May 5, 2026, 02:30 | 62300 |
| May 5, 2026, 02:15 | 62300 |
| May 5, 2026, 02:00 | 62400 |
| May 5, 2026, 01:45 | 62400 |
| May 5, 2026, 01:30 | 62400 |
| May 5, 2026, 01:15 | 62300 |
| May 5, 2026, 01:00 | 62400 |
| May 5, 2026, 00:45 | 62200 |
| May 5, 2026, 00:30 | 62500 |
| May 5, 2026, 00:15 | 62200 |
| May 4, 2026, 24:00 | 62200 |
| May 4, 2026, 23:45 | 62400 |
| May 4, 2026, 23:30 | 62200 |
| May 4, 2026, 23:15 | 62100 |
| May 4, 2026, 23:00 | 62700 |
| May 4, 2026, 22:45 | 62700 |
| May 4, 2026, 22:30 | 62900 |
| May 4, 2026, 22:15 | 62200 |
| May 4, 2026, 22:00 | 62100 |
| May 4, 2026, 21:45 | 62500 |
| May 4, 2026, 21:30 | 62400 |
| May 4, 2026, 21:15 | 62700 |
| May 4, 2026, 21:00 | 62400 |
| May 4, 2026, 20:45 | 62400 |
| May 4, 2026, 20:30 | 62500 |
| May 4, 2026, 20:15 | 62700 |
| May 4, 2026, 20:00 | 62400 |
| May 4, 2026, 19:45 | 62900 |
| May 4, 2026, 19:30 | 62900 |
| May 4, 2026, 19:15 | 62300 |
| May 4, 2026, 19:00 | 62900 |
| May 4, 2026, 18:45 | 64700 |
| May 4, 2026, 18:30 | 62400 |
| May 4, 2026, 18:15 | 62400 |
| May 4, 2026, 18:00 | 62200 |
| May 4, 2026, 17:45 | 62400 |
| May 4, 2026, 17:30 | 62700 |
| May 4, 2026, 17:15 | 62300 |
| May 4, 2026, 17:00 | 62600 |
| May 4, 2026, 16:45 | 62900 |
| May 4, 2026, 16:30 | 62300 |
| May 4, 2026, 16:15 | 62800 |
| May 4, 2026, 16:00 | 62300 |
| May 4, 2026, 15:45 | 62800 |
| May 4, 2026, 15:30 | 62900 |
| May 4, 2026, 15:15 | 62900 |
| May 4, 2026, 15:00 | 62600 |
| May 4, 2026, 14:45 | 62600 |
| May 4, 2026, 14:30 | 62700 |
| May 4, 2026, 14:15 | 62400 |
| May 4, 2026, 14:00 | 62300 |
| May 4, 2026, 13:45 | 62400 |
| May 4, 2026, 13:30 | 62300 |
| May 4, 2026, 13:15 | 62300 |
| May 4, 2026, 13:00 | 62300 |
| May 4, 2026, 12:45 | 62400 |
| May 4, 2026, 12:30 | 62400 |
| May 4, 2026, 12:15 | 62300 |
| May 4, 2026, 12:00 | 62300 |
| May 4, 2026, 11:45 | 62100 |
| May 4, 2026, 11:30 | 62100 |
| May 4, 2026, 11:15 | 62300 |
| May 4, 2026, 11:00 | 62100 |
| May 4, 2026, 10:45 | 62300 |
| May 4, 2026, 10:30 | 62100 |
| May 4, 2026, 10:15 | 62100 |
| May 4, 2026, 10:00 | 62300 |
| May 4, 2026, 09:45 | 62100 |
| May 4, 2026, 09:30 | 62100 |
| May 4, 2026, 09:15 | 62100 |
| May 4, 2026, 09:00 | 62100 |
| May 4, 2026, 08:45 | 62100 |
| May 4, 2026, 08:30 | 62100 |
| May 4, 2026, 08:15 | 62100 |
| May 4, 2026, 08:00 | 62000 |
| May 4, 2026, 07:45 | 61900 |
| May 4, 2026, 07:30 | 61900 |
| May 4, 2026, 07:15 | 62100 |
| May 4, 2026, 07:00 | 61900 |
| May 4, 2026, 06:45 | 62000 |
| May 4, 2026, 06:30 | 61800 |
| May 4, 2026, 06:15 | 61500 |
| May 4, 2026, 06:00 | 62000 |
| May 4, 2026, 05:45 | 62100 |
| May 4, 2026, 05:30 | 62100 |
| May 4, 2026, 05:15 | 62100 |
| May 4, 2026, 05:00 | 62100 |
| May 4, 2026, 04:45 | 62100 |
| May 4, 2026, 04:30 | 62100 |
| May 4, 2026, 04:15 | 62200 |
| May 4, 2026, 04:00 | 62100 |
| May 4, 2026, 03:45 | 62100 |
| May 4, 2026, 03:30 | 62100 |
| May 4, 2026, 03:15 | 62100 |
| May 4, 2026, 03:00 | 62000 |
| May 4, 2026, 02:45 | 62100 |
| May 4, 2026, 02:30 | 62000 |
| May 4, 2026, 02:15 | 62000 |
| May 4, 2026, 02:00 | 62000 |
| May 4, 2026, 01:45 | 62000 |
| May 4, 2026, 01:30 | 62000 |
| May 4, 2026, 01:15 | 62100 |
| May 4, 2026, 01:00 | 62100 |
| May 4, 2026, 00:45 | 62300 |
| May 4, 2026, 00:30 | 62100 |
| May 4, 2026, 00:15 | 62700 |
| May 3, 2026, 24:00 | 62100 |
| May 3, 2026, 23:45 | 62100 |
| May 3, 2026, 23:30 | 62100 |
| May 3, 2026, 23:15 | 62400 |
| May 3, 2026, 23:00 | 62900 |
| May 3, 2026, 22:45 | 62400 |
| May 3, 2026, 22:30 | 62300 |
| May 3, 2026, 22:15 | 62300 |
| May 3, 2026, 22:00 | 62100 |
| May 3, 2026, 21:45 | 62400 |
| May 3, 2026, 21:30 | 62700 |
| May 3, 2026, 21:15 | 64000 |
| May 3, 2026, 21:00 | 62400 |
| May 3, 2026, 20:45 | 62400 |
| May 3, 2026, 20:30 | 62800 |
| May 3, 2026, 20:15 | 62800 |
| May 3, 2026, 20:00 | 62800 |
| May 3, 2026, 19:45 | 62700 |
| May 3, 2026, 19:30 | 62400 |
| May 3, 2026, 19:15 | 62400 |
| May 3, 2026, 19:00 | 62400 |
| May 3, 2026, 18:45 | 62400 |
| May 3, 2026, 18:30 | 62400 |
| May 3, 2026, 18:15 | 62300 |
| May 3, 2026, 18:00 | 62400 |
| May 3, 2026, 17:45 | 62400 |
| May 3, 2026, 17:30 | 62400 |
| May 3, 2026, 17:15 | 62400 |
| May 3, 2026, 17:00 | 62300 |
| May 3, 2026, 16:45 | 62000 |
| May 3, 2026, 16:30 | 62300 |
| May 3, 2026, 16:15 | 62300 |
| May 3, 2026, 16:00 | 62300 |
| May 3, 2026, 15:45 | 62400 |
| May 3, 2026, 15:30 | 62400 |
| May 3, 2026, 15:15 | 62300 |
| May 3, 2026, 15:00 | 62400 |
| May 3, 2026, 14:45 | 62300 |
| May 3, 2026, 14:30 | 62300 |
| May 3, 2026, 14:15 | 62100 |
| May 3, 2026, 14:00 | 62100 |
| May 3, 2026, 13:45 | 62200 |
| May 3, 2026, 13:30 | 62400 |
| May 3, 2026, 13:15 | 62600 |
| May 3, 2026, 13:00 | 63000 |
| May 3, 2026, 12:45 | 64100 |
| May 3, 2026, 12:30 | 61500 |
| May 3, 2026, 12:15 | 61700 |
| May 3, 2026, 12:00 | 61500 |
| May 3, 2026, 11:45 | 61500 |
| May 3, 2026, 11:30 | 61500 |
| May 3, 2026, 11:15 | 61500 |
| May 3, 2026, 11:00 | 61400 |
| May 3, 2026, 10:45 | 61700 |
| May 3, 2026, 10:30 | 61500 |
| May 3, 2026, 10:15 | 61700 |
| May 3, 2026, 10:00 | 61500 |
| May 3, 2026, 09:45 | 61500 |
| May 3, 2026, 09:30 | 61500 |
| May 3, 2026, 09:15 | 61500 |
| May 3, 2026, 09:00 | 61500 |
| May 3, 2026, 08:45 | 61700 |
| May 3, 2026, 08:30 | 61500 |
| May 3, 2026, 08:15 | 61500 |
| May 3, 2026, 08:00 | 61800 |
| May 3, 2026, 07:45 | 61800 |
| May 3, 2026, 07:30 | 61500 |
| May 3, 2026, 07:15 | 61200 |
| May 3, 2026, 07:00 | 61200 |
| May 3, 2026, 06:45 | 61200 |
| May 3, 2026, 06:30 | 61200 |
| May 3, 2026, 06:15 | 61300 |
| May 3, 2026, 06:00 | 61300 |
| May 3, 2026, 05:45 | 61300 |
| May 3, 2026, 05:30 | 61300 |
| May 3, 2026, 05:15 | 61300 |
| May 3, 2026, 05:00 | 61300 |
| May 3, 2026, 04:45 | 61300 |
| May 3, 2026, 04:30 | 61300 |
| May 3, 2026, 04:15 | 61300 |
| May 3, 2026, 04:00 | 61100 |
| May 3, 2026, 03:45 | 61100 |
| May 3, 2026, 03:30 | 61000 |
| May 3, 2026, 03:15 | 61000 |
| May 3, 2026, 03:00 | 61100 |
| May 3, 2026, 02:45 | 60900 |
| May 3, 2026, 02:30 | 60900 |
| May 3, 2026, 02:15 | 60900 |
| May 3, 2026, 02:00 | 60900 |
| May 3, 2026, 01:45 | 60800 |
| May 3, 2026, 01:30 | 60800 |
| May 3, 2026, 01:15 | 60800 |
| May 3, 2026, 01:00 | 60800 |
| May 3, 2026, 00:45 | 60800 |
| May 3, 2026, 00:30 | 60600 |
| May 3, 2026, 00:15 | 60700 |
| May 2, 2026, 24:00 | 60600 |
| May 2, 2026, 23:45 | 60600 |
| May 2, 2026, 23:30 | 60700 |
| May 2, 2026, 23:15 | 60700 |
| May 2, 2026, 23:00 | 60700 |
| May 2, 2026, 22:45 | 60600 |
| May 2, 2026, 22:30 | 60600 |
| May 2, 2026, 22:15 | 60700 |
| May 2, 2026, 22:00 | M |
| May 2, 2026, 21:45 | 62000 |
| May 2, 2026, 21:30 | 60700 |
| May 2, 2026, 21:15 | 60700 |
| May 2, 2026, 21:00 | M |
| May 2, 2026, 20:45 | 60200 |
| May 2, 2026, 20:30 | 60700 |
| May 2, 2026, 20:15 | 60600 |
| May 2, 2026, 20:00 | 60700 |
| May 2, 2026, 19:45 | 60900 |
| May 2, 2026, 19:30 | 60900 |
| May 2, 2026, 19:15 | 60600 |
| May 2, 2026, 19:00 | 60700 |
| May 2, 2026, 18:45 | 60700 |
| May 2, 2026, 18:30 | 60500 |
| May 2, 2026, 18:15 | 60500 |
| May 2, 2026, 18:00 | 60700 |
| May 2, 2026, 17:45 | 60700 |
| May 2, 2026, 17:30 | 60700 |
| May 2, 2026, 17:15 | 60700 |
| May 2, 2026, 17:00 | 60700 |
| May 2, 2026, 16:45 | 60700 |
| May 2, 2026, 16:30 | 60700 |
| May 2, 2026, 16:15 | 60700 |
| May 2, 2026, 16:00 | 60700 |
| May 2, 2026, 15:45 | 60700 |
| May 2, 2026, 15:30 | 60500 |
| May 2, 2026, 15:15 | 60700 |
| May 2, 2026, 15:00 | 60500 |
| May 2, 2026, 14:45 | 60500 |
| May 2, 2026, 14:30 | 60900 |
| May 2, 2026, 14:15 | 61000 |
| May 2, 2026, 14:00 | 61200 |
| May 2, 2026, 13:45 | 61600 |
| May 2, 2026, 13:30 | 62000 |
| May 2, 2026, 13:15 | 65000 |
| May 2, 2026, 13:00 | 65100 |
| May 2, 2026, 12:45 | 59800 |
| May 2, 2026, 12:30 | 59700 |
| May 2, 2026, 12:15 | 59800 |
| May 2, 2026, 12:00 | 59700 |
| May 2, 2026, 11:45 | 59500 |
| May 2, 2026, 11:30 | 59500 |
| May 2, 2026, 11:15 | 59500 |
| May 2, 2026, 11:00 | 59500 |
| May 2, 2026, 10:45 | 59700 |
| May 2, 2026, 10:30 | 59800 |
| May 2, 2026, 10:15 | 59800 |
| May 2, 2026, 10:00 | 59700 |
| May 2, 2026, 09:45 | 59700 |
| May 2, 2026, 09:30 | 59700 |
| May 2, 2026, 09:15 | 59500 |
| May 2, 2026, 09:00 | 59500 |
| May 2, 2026, 08:45 | 59500 |
| May 2, 2026, 08:30 | 59500 |
| May 2, 2026, 08:15 | 59500 |
| May 2, 2026, 08:00 | 59500 |
| May 2, 2026, 07:45 | 59500 |
| May 2, 2026, 07:30 | 59700 |
| May 2, 2026, 07:15 | 59500 |
| May 2, 2026, 07:00 | 59400 |
| May 2, 2026, 06:45 | 59500 |
| May 2, 2026, 06:30 | 59500 |
| May 2, 2026, 06:15 | 59500 |
| May 2, 2026, 06:00 | 59400 |
| May 2, 2026, 05:45 | 59700 |
| May 2, 2026, 05:30 | 60000 |
| May 2, 2026, 05:15 | 59400 |
| May 2, 2026, 05:00 | 59400 |
| May 2, 2026, 04:45 | 59400 |
| May 2, 2026, 04:30 | 59400 |
| May 2, 2026, 04:15 | 59500 |
| May 2, 2026, 04:00 | 59400 |
| May 2, 2026, 03:45 | 59500 |
| May 2, 2026, 03:30 | 59400 |
| May 2, 2026, 03:15 | 59400 |
| May 2, 2026, 03:00 | 59300 |
| May 2, 2026, 02:45 | 59300 |
| May 2, 2026, 02:30 | 59300 |
| May 2, 2026, 02:15 | 59300 |
| May 2, 2026, 02:00 | 59300 |
| May 2, 2026, 01:45 | 59100 |
| May 2, 2026, 01:30 | 59400 |
| May 2, 2026, 01:15 | 59400 |
| May 2, 2026, 01:00 | 59400 |
| May 2, 2026, 00:45 | 59300 |
| May 2, 2026, 00:30 | 59000 |
| May 2, 2026, 00:15 | 59400 |
| May 1, 2026, 24:00 | 59500 |
| May 1, 2026, 23:45 | 59400 |
| May 1, 2026, 23:30 | 59300 |
| May 1, 2026, 23:15 | 59700 |
| May 1, 2026, 23:00 | 59700 |
| May 1, 2026, 22:45 | 59300 |
| May 1, 2026, 22:30 | 59300 |
| May 1, 2026, 22:15 | 59100 |
| May 1, 2026, 22:00 | 59400 |
| May 1, 2026, 21:45 | 59300 |
| May 1, 2026, 21:30 | 59400 |
| May 1, 2026, 21:15 | 59500 |
| May 1, 2026, 21:00 | 59300 |
| May 1, 2026, 20:45 | 59300 |
| May 1, 2026, 20:30 | 59400 |
| May 1, 2026, 20:15 | 59400 |
| May 1, 2026, 20:00 | 59400 |
| May 1, 2026, 19:45 | 59400 |
| May 1, 2026, 19:30 | 59400 |
| May 1, 2026, 19:15 | 59300 |
| May 1, 2026, 19:00 | 59300 |
| May 1, 2026, 18:45 | 59300 |
| May 1, 2026, 18:30 | 59400 |
| May 1, 2026, 18:15 | 59300 |
| May 1, 2026, 18:00 | 59400 |
| May 1, 2026, 17:45 | 59300 |
| May 1, 2026, 17:30 | 59400 |
| May 1, 2026, 17:15 | 59400 |
| May 1, 2026, 17:00 | 59500 |
| May 1, 2026, 16:45 | 59400 |
| May 1, 2026, 16:30 | 59400 |
| May 1, 2026, 16:15 | 59400 |
| May 1, 2026, 16:00 | 59300 |
| May 1, 2026, 15:45 | 59400 |
| May 1, 2026, 15:30 | 59300 |
| May 1, 2026, 15:15 | 59400 |
| May 1, 2026, 15:00 | 59300 |
| May 1, 2026, 14:45 | 59100 |
| May 1, 2026, 14:30 | 59000 |
| May 1, 2026, 14:15 | 59000 |
| May 1, 2026, 14:00 | 59000 |
| May 1, 2026, 13:45 | 59100 |
| May 1, 2026, 13:30 | 59300 |
| May 1, 2026, 13:15 | 59300 |
| May 1, 2026, 13:00 | 59300 |
| May 1, 2026, 12:45 | 59300 |
| May 1, 2026, 12:30 | 59100 |
| May 1, 2026, 12:15 | 59100 |
| May 1, 2026, 12:00 | 59000 |
| May 1, 2026, 11:45 | 59000 |
| May 1, 2026, 11:30 | 59000 |
| May 1, 2026, 11:15 | 59000 |
| May 1, 2026, 11:00 | 58900 |
| May 1, 2026, 10:45 | 59000 |
| May 1, 2026, 10:30 | 59100 |
| May 1, 2026, 10:15 | 59100 |
| May 1, 2026, 10:00 | 59100 |
| May 1, 2026, 09:45 | 59100 |
| May 1, 2026, 09:30 | 59000 |
| May 1, 2026, 09:15 | 59000 |
| May 1, 2026, 09:00 | 59100 |
| May 1, 2026, 08:45 | 59100 |
| May 1, 2026, 08:30 | 59100 |
| May 1, 2026, 08:15 | 59300 |
| May 1, 2026, 08:00 | 59000 |
| May 1, 2026, 07:45 | 59400 |
| May 1, 2026, 07:30 | 59400 |
| May 1, 2026, 07:15 | 59000 |
| May 1, 2026, 07:00 | 59500 |
| May 1, 2026, 06:45 | 59100 |
| May 1, 2026, 06:30 | 60500 |
| May 1, 2026, 06:15 | 59400 |
| May 1, 2026, 06:00 | 59700 |
| May 1, 2026, 05:45 | 59800 |
| May 1, 2026, 05:30 | 60100 |
| May 1, 2026, 05:15 | 60400 |
| May 1, 2026, 05:00 | 60500 |
| May 1, 2026, 04:45 | 60800 |
| May 1, 2026, 04:30 | 61500 |
| May 1, 2026, 04:15 | 62800 |
| May 1, 2026, 04:00 | 57900 |
| May 1, 2026, 03:45 | 57800 |
| May 1, 2026, 03:30 | 57900 |
| May 1, 2026, 03:15 | 57800 |
| May 1, 2026, 03:00 | 57800 |
| May 1, 2026, 02:45 | 57800 |
| May 1, 2026, 02:30 | 57800 |
| May 1, 2026, 02:15 | 57800 |
| May 1, 2026, 02:00 | 57800 |
| May 1, 2026, 01:45 | 57900 |
| May 1, 2026, 01:30 | 58100 |
| May 1, 2026, 01:15 | 58200 |
| May 1, 2026, 01:00 | 58200 |
| May 1, 2026, 00:45 | 58200 |
| May 1, 2026, 00:30 | 58200 |
| May 1, 2026, 00:15 | 58200 |
| April 30, 2026, 24:00 | 58300 |
| April 30, 2026, 23:45 | 58300 |
| April 30, 2026, 23:30 | 58200 |
| April 30, 2026, 23:15 | 58200 |
| April 30, 2026, 23:00 | 58300 |
| April 30, 2026, 22:45 | 58200 |
| April 30, 2026, 22:30 | 58200 |
| April 30, 2026, 22:15 | 58200 |
| April 30, 2026, 22:00 | 58200 |
| April 30, 2026, 21:45 | 58200 |
| April 30, 2026, 21:30 | 58200 |
| April 30, 2026, 21:15 | 58100 |
| April 30, 2026, 21:00 | 58200 |
| April 30, 2026, 20:45 | 58300 |
| April 30, 2026, 20:30 | 57900 |
| April 30, 2026, 20:15 | 58300 |
| April 30, 2026, 20:00 | 58200 |
| April 30, 2026, 19:45 | 58200 |
| April 30, 2026, 19:30 | 58300 |
| April 30, 2026, 19:15 | 58200 |
| April 30, 2026, 19:00 | 58300 |
| April 30, 2026, 18:45 | 58300 |
| April 30, 2026, 18:30 | 58300 |
| April 30, 2026, 18:15 | 58300 |
| April 30, 2026, 18:00 | 58200 |
| April 30, 2026, 17:45 | 58100 |
| April 30, 2026, 17:30 | 58200 |
| April 30, 2026, 17:15 | 58600 |
| April 30, 2026, 17:00 | 58400 |
| April 30, 2026, 16:45 | 58400 |
| April 30, 2026, 16:30 | 58400 |
| April 30, 2026, 16:15 | 58300 |
| April 30, 2026, 16:00 | 58400 |
| April 30, 2026, 15:45 | 58400 |
| April 30, 2026, 15:30 | 58400 |
| April 30, 2026, 15:15 | 58300 |
| April 30, 2026, 15:00 | 58400 |
| April 30, 2026, 14:45 | 58400 |
| April 30, 2026, 14:30 | 58300 |
| April 30, 2026, 14:15 | 58300 |
| April 30, 2026, 14:00 | 58100 |
| April 30, 2026, 13:45 | 58200 |
| April 30, 2026, 13:30 | 58200 |
| April 30, 2026, 13:15 | 58200 |
| April 30, 2026, 13:00 | 58100 |
| April 30, 2026, 12:45 | 58200 |
| April 30, 2026, 12:30 | 58100 |
| April 30, 2026, 12:15 | 58200 |
| April 30, 2026, 12:00 | 58100 |
| April 30, 2026, 11:45 | 58200 |
| April 30, 2026, 11:30 | 58100 |
| April 30, 2026, 11:15 | 58200 |
| April 30, 2026, 11:00 | 58100 |
| April 30, 2026, 10:45 | 58100 |
| April 30, 2026, 10:30 | 58100 |
| April 30, 2026, 10:15 | 58100 |
| April 30, 2026, 10:00 | 58100 |
| April 30, 2026, 09:45 | 58200 |
| April 30, 2026, 09:30 | 58200 |
| April 30, 2026, 09:15 | 58200 |
| April 30, 2026, 09:00 | 58200 |
| Date/Time (UTC) | LockDam_06 Temp-Air F | LockDam_06 Temp-Water F | LockDam_06 Speed-Wind mph | LockDam_06 Dir-Wind deg |
|---|---|---|---|---|
| May 7, 2026, 08:15 | 36 | 54 | 131072 | 0 |
| May 7, 2026, 08:00 | 36 | 54 | 131072 | 0 |
| May 7, 2026, 07:45 | 36 | 54 | 131072 | 0 |
| May 7, 2026, 07:30 | 36 | 54 | 131072 | 0 |
| May 7, 2026, 07:15 | 36 | 54 | 131072 | 0 |
| May 7, 2026, 07:00 | 36 | 54 | 131072 | 0 |
| May 7, 2026, 06:45 | 36 | 54 | 131072 | 0 |
| May 7, 2026, 06:30 | 36 | 54 | 131072 | 0 |
| May 7, 2026, 06:15 | 36 | 54 | 131072 | 0 |
| May 7, 2026, 06:00 | 36 | 54 | 131072 | 0 |
| May 7, 2026, 05:45 | 36 | 54 | 131072 | 0 |
| May 7, 2026, 05:30 | 36 | 55 | 131072 | 0 |
| May 7, 2026, 05:15 | 36 | 55 | 131072 | 0 |
| May 7, 2026, 05:00 | 36 | 55 | 131072 | 0 |
| May 7, 2026, 04:45 | 36 | 55 | 131072 | 0 |
| May 7, 2026, 04:30 | 37 | 55 | 131072 | 0 |
| May 7, 2026, 04:15 | 37 | 55 | 131072 | 0 |
| May 7, 2026, 04:00 | 38 | 55 | 131072 | 0 |
| May 7, 2026, 03:45 | 39 | 55 | 131072 | 0 |
| May 7, 2026, 03:30 | 39 | 55 | 131072 | 0 |
| May 7, 2026, 03:15 | 40 | 55 | 131072 | 0 |
| May 7, 2026, 03:00 | 40 | 55 | 131072 | 0 |
| May 7, 2026, 02:45 | 41 | 55 | 131072 | 0 |
| May 7, 2026, 02:30 | 40 | 55 | 131072 | 0 |
| May 7, 2026, 02:15 | 40 | 55 | 131072 | 0 |
| May 7, 2026, 02:00 | 42 | 55 | 131072 | 0 |
| May 7, 2026, 01:45 | 43 | 55 | 131072 | 0 |
| May 7, 2026, 01:30 | 43 | 55 | 131072 | 0 |
| May 7, 2026, 01:15 | 44 | 55 | 131072 | 0 |
| May 7, 2026, 01:00 | 45 | 55 | 131072 | 0 |
| May 7, 2026, 00:45 | 46 | 55 | 131072 | 0 |
| May 7, 2026, 00:30 | 45 | 55 | 131072 | 0 |
| May 7, 2026, 00:15 | 45 | 55 | 131072 | 0 |
| May 6, 2026, 24:00 | 46 | 55 | 131072 | 0 |
| May 6, 2026, 23:45 | 46 | 55 | 131072 | 0 |
| May 6, 2026, 23:30 | 46 | 55 | 131072 | 0 |
| May 6, 2026, 23:15 | 46 | 55 | 131072 | 0 |
| May 6, 2026, 23:00 | 45 | 55 | 131072 | 0 |
| May 6, 2026, 22:45 | 45 | 55 | 131072 | 0 |
| May 6, 2026, 22:30 | 46 | 55 | 131072 | 0 |
| May 6, 2026, 22:15 | 46 | 55 | 131072 | 0 |
| May 6, 2026, 22:00 | 46 | 55 | 131072 | 0 |
| May 6, 2026, 21:45 | 45 | 55 | 131072 | 0 |
| May 6, 2026, 21:30 | 46 | 55 | 131072 | 0 |
| May 6, 2026, 21:15 | 46 | 55 | 131072 | 0 |
| May 6, 2026, 21:00 | 45 | 55 | 131072 | 0 |
| May 6, 2026, 20:45 | 45 | 55 | 131072 | 0 |
| May 6, 2026, 20:30 | 45 | 55 | 131072 | 0 |
| May 6, 2026, 20:15 | 45 | 56 | 131072 | 0 |
| May 6, 2026, 20:00 | 45 | 56 | 131072 | 0 |
| May 6, 2026, 19:45 | 46 | 56 | 131072 | 0 |
| May 6, 2026, 19:30 | 46 | 56 | 131072 | 0 |
| May 6, 2026, 19:15 | 46 | 56 | 131072 | 0 |
| May 6, 2026, 19:00 | 45 | 56 | 131072 | 0 |
| May 6, 2026, 18:45 | 46 | 56 | 131072 | 0 |
| May 6, 2026, 18:30 | 46 | 56 | 131072 | 0 |
| May 6, 2026, 18:15 | 46 | 56 | 131072 | 0 |
| May 6, 2026, 18:00 | 46 | 56 | 131072 | 0 |
| May 6, 2026, 17:45 | 46 | 56 | 131072 | 0 |
| May 6, 2026, 17:30 | 46 | 56 | 131072 | 0 |
| May 6, 2026, 17:15 | 48 | 56 | 131072 | 0 |
| May 6, 2026, 17:00 | 46 | 56 | 131072 | 0 |
| May 6, 2026, 16:45 | 46 | 56 | 131072 | 0 |
| May 6, 2026, 16:30 | 46 | 56 | 131072 | 0 |
| May 6, 2026, 16:15 | 46 | 56 | 131072 | 0 |
| May 6, 2026, 16:00 | 45 | 56 | 131072 | 0 |
| May 6, 2026, 15:45 | 46 | 56 | 131072 | 0 |
| May 6, 2026, 15:30 | 46 | 56 | 131072 | 0 |
| May 6, 2026, 15:15 | 44 | 56 | 131072 | 0 |
| May 6, 2026, 15:00 | 43 | 56 | 131072 | 0 |
| May 6, 2026, 14:45 | 43 | 56 | 131072 | 0 |
| May 6, 2026, 14:30 | 43 | 56 | 131072 | 0 |
| May 6, 2026, 14:15 | 43 | 56 | 131072 | 0 |
| May 6, 2026, 14:00 | 43 | 57 | 131072 | 0 |
| May 6, 2026, 13:45 | 43 | 57 | 131072 | 0 |
| May 6, 2026, 13:30 | 43 | 57 | 131072 | 0 |
| May 6, 2026, 13:15 | 42 | 57 | 131072 | 0 |
| May 6, 2026, 13:00 | 42 | 57 | 131072 | 0 |
| May 6, 2026, 12:45 | 42 | 57 | 131072 | 0 |
| May 6, 2026, 12:30 | 41 | 57 | 131072 | 0 |
| May 6, 2026, 12:15 | 40 | 57 | 131072 | 0 |
| May 6, 2026, 12:00 | 40 | 57 | 131072 | 0 |
| May 6, 2026, 11:45 | 39 | 57 | 131072 | 0 |
| May 6, 2026, 11:30 | 38 | 57 | 131072 | 0 |
| May 6, 2026, 11:15 | 38 | 57 | 131072 | 0 |
| May 6, 2026, 11:00 | 38 | 57 | 131072 | 0 |
| May 6, 2026, 10:45 | 38 | 57 | 131072 | 0 |
| May 6, 2026, 10:30 | 39 | 57 | 131072 | 0 |
| May 6, 2026, 10:15 | 39 | 57 | 131072 | 0 |
| May 6, 2026, 10:00 | 39 | 57 | 131072 | 0 |
| May 6, 2026, 09:45 | 40 | 57 | 131072 | 0 |
| May 6, 2026, 09:30 | 40 | 57 | 131072 | 0 |
| May 6, 2026, 09:15 | 41 | 57 | 131072 | 0 |
| May 6, 2026, 09:00 | 41 | 57 | 131072 | 0 |
| May 6, 2026, 08:45 | 41 | 57 | 131072 | 0 |
| May 6, 2026, 08:30 | 41 | 57 | 131072 | 0 |
| May 6, 2026, 08:15 | 42 | 57 | 131072 | 0 |
| May 6, 2026, 08:00 | 43 | 57 | 131072 | 0 |
| May 6, 2026, 07:45 | 43 | 57 | 131072 | 0 |
| May 6, 2026, 07:30 | 43 | 57 | 131072 | 0 |
| May 6, 2026, 07:15 | 43 | 57 | 131072 | 0 |
| May 6, 2026, 07:00 | 43 | 57 | 131072 | 0 |
| May 6, 2026, 06:45 | 44 | 57 | 131072 | 0 |
| May 6, 2026, 06:30 | 44 | 57 | 131072 | 0 |
| May 6, 2026, 06:15 | 45 | 57 | 131072 | 0 |
| May 6, 2026, 06:00 | 45 | 57 | 131072 | 0 |
| May 6, 2026, 05:45 | 46 | 58 | 131072 | 0 |
| May 6, 2026, 05:30 | 45 | 58 | 131072 | 0 |
| May 6, 2026, 05:15 | 46 | 58 | 131072 | 0 |
| May 6, 2026, 05:00 | 46 | 58 | 131072 | 0 |
| May 6, 2026, 04:45 | 47 | 58 | 131072 | 0 |
| May 6, 2026, 04:30 | 47 | 58 | 131072 | 0 |
| May 6, 2026, 04:15 | 48 | 58 | 131072 | 0 |
| May 6, 2026, 04:00 | 48 | 58 | 131072 | 0 |
| May 6, 2026, 03:45 | 48 | 58 | 131072 | 0 |
| May 6, 2026, 03:30 | 48 | 58 | 131072 | 0 |
| May 6, 2026, 03:15 | 49 | 58 | 131072 | 0 |
| May 6, 2026, 03:00 | 49 | 58 | 131072 | 0 |
| May 6, 2026, 02:45 | 49 | 58 | 131072 | 0 |
| May 6, 2026, 02:30 | 49 | 58 | 131072 | 0 |
| May 6, 2026, 02:15 | 50 | 58 | 131072 | 0 |
| May 6, 2026, 02:00 | 50 | 58 | 131072 | 0 |
| May 6, 2026, 01:45 | 49 | 58 | 131072 | 0 |
| May 6, 2026, 01:30 | 49 | 58 | 131072 | 0 |
| May 6, 2026, 01:15 | 50 | 58 | 131072 | 0 |
| May 6, 2026, 01:00 | 50 | 58 | 131072 | 0 |
| May 6, 2026, 00:45 | 50 | 58 | 131072 | 0 |
| May 6, 2026, 00:30 | 52 | 58 | 131072 | 0 |
| May 6, 2026, 00:15 | 52 | 58 | 131072 | 0 |
| May 5, 2026, 24:00 | 51 | 58 | 131072 | 0 |
| May 5, 2026, 23:45 | 52 | 58 | 131072 | 0 |
| May 5, 2026, 23:30 | 52 | 58 | 131072 | 0 |
| May 5, 2026, 23:15 | 52 | 58 | 131072 | 0 |
| May 5, 2026, 23:00 | 53 | 58 | 131072 | 0 |
| May 5, 2026, 22:45 | 52 | 58 | 131072 | 0 |
| May 5, 2026, 22:30 | 52 | 58 | 131072 | 0 |
| May 5, 2026, 22:15 | 53 | 58 | 131072 | 0 |
| May 5, 2026, 22:00 | 53 | 58 | 131072 | 0 |
| May 5, 2026, 21:45 | 53 | 58 | 131072 | 0 |
| May 5, 2026, 21:30 | 53 | 58 | 131072 | 0 |
| May 5, 2026, 21:15 | 53 | 58 | 131072 | 0 |
| May 5, 2026, 21:00 | 53 | 58 | 131072 | 0 |
| May 5, 2026, 20:45 | 53 | 58 | 131072 | 0 |
| May 5, 2026, 20:30 | 53 | 58 | 131072 | 0 |
| May 5, 2026, 20:15 | 53 | 58 | 131072 | 0 |
| May 5, 2026, 20:00 | 54 | 58 | 131072 | 0 |
| May 5, 2026, 19:45 | 53 | 58 | 131072 | 0 |
| May 5, 2026, 19:30 | 52 | 58 | 131072 | 0 |
| May 5, 2026, 19:15 | 52 | 58 | 131072 | 0 |
| May 5, 2026, 19:00 | 53 | 58 | 131072 | 0 |
| May 5, 2026, 18:45 | 53 | 58 | 131072 | 0 |
| May 5, 2026, 18:30 | 52 | 58 | 131072 | 0 |
| May 5, 2026, 18:15 | 54 | 58 | 131072 | 0 |
| May 5, 2026, 18:00 | 53 | 58 | 131072 | 0 |
| May 5, 2026, 17:45 | 52 | 58 | 131072 | 0 |
| May 5, 2026, 17:30 | 53 | 58 | 131072 | 0 |
| May 5, 2026, 17:15 | 51 | 58 | 131072 | 0 |
| May 5, 2026, 17:00 | 52 | 58 | 131072 | 0 |
| May 5, 2026, 16:45 | 52 | 58 | 131072 | 0 |
| May 5, 2026, 16:30 | 51 | 58 | 131072 | 0 |
| May 5, 2026, 16:15 | 51 | 58 | 131072 | 0 |
| May 5, 2026, 16:00 | 50 | 58 | 131072 | 0 |
| May 5, 2026, 15:45 | 52 | 58 | 131072 | 0 |
| May 5, 2026, 15:30 | 51 | 58 | 131072 | 0 |
| May 5, 2026, 15:15 | 50 | 58 | 131072 | 0 |
| May 5, 2026, 15:00 | 50 | 58 | 131072 | 0 |
| May 5, 2026, 14:45 | 50 | 58 | 131072 | 0 |
| May 5, 2026, 14:30 | 49 | 58 | 131072 | 0 |
| May 5, 2026, 14:15 | 48 | 59 | 131072 | 0 |
| May 5, 2026, 14:00 | 48 | 59 | 131072 | 0 |
| May 5, 2026, 13:45 | 47 | 58 | 131072 | 0 |
| May 5, 2026, 13:30 | 47 | 59 | 131072 | 0 |
| May 5, 2026, 13:15 | 47 | 59 | 131072 | 0 |
| May 5, 2026, 13:00 | 46 | 59 | 131072 | 0 |
| May 5, 2026, 12:45 | 47 | 59 | 131072 | 0 |
| May 5, 2026, 12:30 | 46 | 59 | 131072 | 0 |
| May 5, 2026, 12:15 | 45 | 59 | 131072 | 0 |
| May 5, 2026, 12:00 | 44 | 59 | 131072 | 0 |
| May 5, 2026, 11:45 | 43 | 59 | 131072 | 0 |
| May 5, 2026, 11:30 | 44 | 59 | 131072 | 0 |
| May 5, 2026, 11:15 | 44 | 59 | 131072 | 0 |
| May 5, 2026, 11:00 | 44 | 59 | 131072 | 0 |
| May 5, 2026, 10:45 | 45 | 59 | 131072 | 0 |
| May 5, 2026, 10:30 | 44 | 59 | 131072 | 0 |
| May 5, 2026, 10:15 | 45 | 59 | 131072 | 0 |
| May 5, 2026, 10:00 | 45 | 59 | 131072 | 0 |
| May 5, 2026, 09:45 | 45 | 59 | 131072 | 0 |
| May 5, 2026, 09:30 | 46 | 59 | 131072 | 0 |
| May 5, 2026, 09:15 | 46 | 59 | 131072 | 0 |
| May 5, 2026, 09:00 | 47 | 59 | 131072 | 0 |
| May 5, 2026, 08:45 | 46 | 59 | 131072 | 0 |
| May 5, 2026, 08:30 | 47 | 59 | 131072 | 0 |
| May 5, 2026, 08:15 | 47 | 59 | 131072 | 0 |
| May 5, 2026, 08:00 | 47 | 59 | 131072 | 0 |
| May 5, 2026, 07:45 | 48 | 59 | 131072 | 0 |
| May 5, 2026, 07:30 | 48 | 59 | 131072 | 0 |
| May 5, 2026, 07:15 | 48 | 59 | 131072 | 0 |
| May 5, 2026, 07:00 | 48 | 60 | 131072 | 0 |
| May 5, 2026, 06:45 | 49 | 60 | 131072 | 0 |
| May 5, 2026, 06:30 | 49 | 60 | 131072 | 0 |
| May 5, 2026, 06:15 | 49 | 60 | 131072 | 0 |
| May 5, 2026, 06:00 | 49 | 60 | 131072 | 0 |
| May 5, 2026, 05:45 | 49 | 60 | 131072 | 0 |
| May 5, 2026, 05:30 | 49 | 60 | 131072 | 0 |
| May 5, 2026, 05:15 | 49 | 60 | 131072 | 0 |
| May 5, 2026, 05:00 | 50 | 60 | 131072 | 0 |
| May 5, 2026, 04:45 | 50 | 60 | 131072 | 0 |
| May 5, 2026, 04:30 | 50 | 60 | 131072 | 0 |
| May 5, 2026, 04:15 | 51 | 60 | 131072 | 0 |
| May 5, 2026, 04:00 | 51 | 60 | 131072 | 0 |
| May 5, 2026, 03:45 | 53 | 60 | 131072 | 0 |
| May 5, 2026, 03:30 | 53 | 60 | 131072 | 0 |
| May 5, 2026, 03:15 | 54 | 60 | 131072 | 0 |
| May 5, 2026, 03:00 | 54 | 60 | 131072 | 0 |
| May 5, 2026, 02:45 | 54 | 60 | 131072 | 0 |
| May 5, 2026, 02:30 | 55 | 60 | 131072 | 0 |
| May 5, 2026, 02:15 | 55 | 60 | 131072 | 0 |
| May 5, 2026, 02:00 | 56 | 60 | 131072 | 0 |
| May 5, 2026, 01:45 | 57 | 60 | 131072 | 0 |
| May 5, 2026, 01:30 | 57 | 60 | 131072 | 0 |
| May 5, 2026, 01:15 | 58 | 60 | 131072 | 0 |
| May 5, 2026, 01:00 | 59 | 60 | 131072 | 0 |
| May 5, 2026, 00:45 | 59 | 60 | 131072 | 0 |
| May 5, 2026, 00:30 | 60 | 60 | 131072 | 0 |
| May 5, 2026, 00:15 | 60 | 60 | 131072 | 0 |
| May 4, 2026, 24:00 | 61 | 60 | 131072 | 0 |
| May 4, 2026, 23:45 | 62 | 60 | 131072 | 0 |
| May 4, 2026, 23:30 | 62 | 60 | 131072 | 0 |
| May 4, 2026, 23:15 | 62 | 60 | 131072 | 0 |
| May 4, 2026, 23:00 | 62 | 60 | 131072 | 0 |
| May 4, 2026, 22:45 | 63 | 60 | 131072 | 0 |
| May 4, 2026, 22:30 | 63 | 60 | 131072 | 0 |
| May 4, 2026, 22:15 | 65 | 60 | 131072 | 0 |
| May 4, 2026, 22:00 | 65 | 60 | 131072 | 0 |
| May 4, 2026, 21:45 | 65 | 60 | 131072 | 0 |
| May 4, 2026, 21:30 | 66 | 60 | 131072 | 0 |
| May 4, 2026, 21:15 | 66 | 60 | 131072 | 0 |
| May 4, 2026, 21:00 | 67 | 60 | 131072 | 0 |
| May 4, 2026, 20:45 | 67 | 60 | 131072 | 0 |
| May 4, 2026, 20:30 | 67 | 60 | 131072 | 0 |
| May 4, 2026, 20:15 | 67 | 60 | 131072 | 0 |
| May 4, 2026, 20:00 | 67 | 60 | 131072 | 0 |
| May 4, 2026, 19:45 | 67 | 60 | 131072 | 0 |
| May 4, 2026, 19:30 | 68 | 59 | 131072 | 0 |
| May 4, 2026, 19:15 | 68 | 59 | 131072 | 0 |
| May 4, 2026, 19:00 | 68 | 59 | 131072 | 0 |
| May 4, 2026, 18:45 | 70 | 59 | 131072 | 0 |
| May 4, 2026, 18:30 | 70 | 59 | 131072 | 0 |
| May 4, 2026, 18:15 | 70 | 59 | 131072 | 0 |
| May 4, 2026, 18:00 | 70 | 59 | 131072 | 0 |
| May 4, 2026, 17:45 | 70 | 59 | 131072 | 0 |
| May 4, 2026, 17:30 | 70 | 59 | 131072 | 0 |
| May 4, 2026, 17:15 | 69 | 59 | 131072 | 0 |
| May 4, 2026, 17:00 | 69 | 59 | 131072 | 0 |
| May 4, 2026, 16:45 | 68 | 59 | 131072 | 0 |
| May 4, 2026, 16:30 | 69 | 59 | 131072 | 0 |
| May 4, 2026, 16:15 | 70 | 59 | 131072 | 0 |
| May 4, 2026, 16:00 | 70 | 59 | 131072 | 0 |
| May 4, 2026, 15:45 | 69 | 59 | 131072 | 0 |
| May 4, 2026, 15:30 | 69 | 59 | 131072 | 0 |
| May 4, 2026, 15:15 | 69 | 59 | 131072 | 0 |
| May 4, 2026, 15:00 | 69 | 59 | 131072 | 0 |
| May 4, 2026, 14:45 | 69 | 59 | 131072 | 0 |
| May 4, 2026, 14:30 | 68 | 59 | 131072 | 0 |
| May 4, 2026, 14:15 | 68 | 59 | 131072 | 0 |
| May 4, 2026, 14:00 | 66 | 59 | 131072 | 0 |
| May 4, 2026, 13:45 | 65 | 59 | 131072 | 0 |
| May 4, 2026, 13:30 | 64 | 59 | 131072 | 0 |
| May 4, 2026, 13:15 | 63 | 59 | 131072 | 0 |
| May 4, 2026, 13:00 | 63 | 59 | 131072 | 0 |
| May 4, 2026, 12:45 | 62 | 59 | 131072 | 0 |
| May 4, 2026, 12:30 | 62 | 59 | 131072 | 0 |
| May 4, 2026, 12:15 | 61 | 59 | 131072 | 0 |
| May 4, 2026, 12:00 | 59 | 59 | 131072 | 0 |
| May 4, 2026, 11:45 | 56 | 59 | 131072 | 0 |
| May 4, 2026, 11:30 | 54 | 59 | 131072 | 0 |
| May 4, 2026, 11:15 | 53 | 59 | 131072 | 0 |
| May 4, 2026, 11:00 | 53 | 59 | 131072 | 0 |
| May 4, 2026, 10:45 | 53 | 59 | 131072 | 0 |
| May 4, 2026, 10:30 | 54 | 59 | 131072 | 0 |
| May 4, 2026, 10:15 | 55 | 59 | 131072 | 0 |
| May 4, 2026, 10:00 | 55 | 59 | 131072 | 0 |
| May 4, 2026, 09:45 | 56 | 59 | 131072 | 0 |
| May 4, 2026, 09:30 | 55 | 59 | 131072 | 0 |
| May 4, 2026, 09:15 | 55 | 59 | 131072 | 0 |
| May 4, 2026, 09:00 | 53 | 59 | 131072 | 0 |
| May 4, 2026, 08:45 | 49 | 59 | 131072 | 0 |
| May 4, 2026, 08:30 | 49 | 59 | 131072 | 0 |
| May 4, 2026, 08:15 | 48 | 59 | 131072 | 0 |
| May 4, 2026, 08:00 | 48 | 59 | 131072 | 0 |
| May 4, 2026, 07:45 | 49 | 59 | 131072 | 0 |
| May 4, 2026, 07:30 | 49 | 59 | 131072 | 0 |
| May 4, 2026, 07:15 | 48 | 59 | 131072 | 0 |
| May 4, 2026, 07:00 | 50 | 59 | 131072 | 0 |
| May 4, 2026, 06:45 | 51 | 59 | 131072 | 0 |
| May 4, 2026, 06:30 | 52 | 59 | 131072 | 0 |
| May 4, 2026, 06:15 | 52 | 60 | 131072 | 0 |
| May 4, 2026, 06:00 | 53 | 60 | 131072 | 0 |
| May 4, 2026, 05:45 | 52 | 60 | 131072 | 0 |
| May 4, 2026, 05:30 | 53 | 60 | 131072 | 0 |
| May 4, 2026, 05:15 | 53 | 60 | 131072 | 0 |
| May 4, 2026, 05:00 | 54 | 60 | 131072 | 0 |
| May 4, 2026, 04:45 | 54 | 60 | 131072 | 0 |
| May 4, 2026, 04:30 | 54 | 60 | 131072 | 0 |
| May 4, 2026, 04:15 | 55 | 60 | 131072 | 0 |
| May 4, 2026, 04:00 | 55 | 60 | 131072 | 0 |
| May 4, 2026, 03:45 | 56 | 60 | 131072 | 0 |
| May 4, 2026, 03:30 | 56 | 60 | 131072 | 0 |
| May 4, 2026, 03:15 | 57 | 60 | 131072 | 0 |
| May 4, 2026, 03:00 | 58 | 60 | 131072 | 0 |
| May 4, 2026, 02:45 | 60 | 60 | 131072 | 0 |
| May 4, 2026, 02:30 | 60 | 60 | 131072 | 0 |
| May 4, 2026, 02:15 | 62 | 60 | 131072 | 0 |
| May 4, 2026, 02:00 | 63 | 60 | 131072 | 0 |
| May 4, 2026, 01:45 | 64 | 60 | 131072 | 0 |
| May 4, 2026, 01:30 | 64 | 60 | 131072 | 0 |
| May 4, 2026, 01:15 | 65 | 60 | 131072 | 0 |
| May 4, 2026, 01:00 | 66 | 60 | 131072 | 0 |
| May 4, 2026, 00:45 | 68 | 60 | 131072 | 0 |
| May 4, 2026, 00:30 | 69 | 60 | 131072 | 0 |
| May 4, 2026, 00:15 | 70 | 60 | 131072 | 0 |
| May 3, 2026, 24:00 | 70 | 60 | 131072 | 0 |
| May 3, 2026, 23:45 | 70 | 60 | 131072 | 0 |
| May 3, 2026, 23:30 | 71 | 60 | 131072 | 0 |
| May 3, 2026, 23:15 | 71 | 60 | 131072 | 0 |
| May 3, 2026, 23:00 | 71 | 60 | 131072 | 0 |
| May 3, 2026, 22:45 | 71 | 59 | 131072 | 0 |
| May 3, 2026, 22:30 | 71 | 59 | 131072 | 0 |
| May 3, 2026, 22:15 | 72 | 59 | 131072 | 0 |
| May 3, 2026, 22:00 | 72 | 59 | 131072 | 0 |
| May 3, 2026, 21:45 | 71 | 59 | 131072 | 0 |
| May 3, 2026, 21:30 | 72 | 59 | 131072 | 0 |
| May 3, 2026, 21:15 | 72 | 59 | 131072 | 0 |
| May 3, 2026, 21:00 | 72 | 59 | 131072 | 0 |
| May 3, 2026, 20:45 | 71 | 58 | 131072 | 0 |
| May 3, 2026, 20:30 | 71 | 58 | 131072 | 0 |
| May 3, 2026, 20:15 | 71 | 58 | 131072 | 0 |
| May 3, 2026, 20:00 | 71 | 58 | 131072 | 0 |
| May 3, 2026, 19:45 | 71 | 58 | 131072 | 0 |
| May 3, 2026, 19:30 | 71 | 58 | 131072 | 0 |
| May 3, 2026, 19:15 | 71 | 58 | 131072 | 0 |
| May 3, 2026, 19:00 | 71 | 58 | 131072 | 0 |
| May 3, 2026, 18:45 | 70 | 58 | 131072 | 0 |
| May 3, 2026, 18:30 | 70 | 58 | 131072 | 0 |
| May 3, 2026, 18:15 | 71 | 57 | 131072 | 0 |
| May 3, 2026, 18:00 | 70 | 57 | 131072 | 0 |
| May 3, 2026, 17:45 | 71 | 57 | 131072 | 0 |
| May 3, 2026, 17:30 | 70 | 57 | 131072 | 0 |
| May 3, 2026, 17:15 | 70 | 57 | 131072 | 0 |
| May 3, 2026, 17:00 | 71 | 57 | 131072 | 0 |
| May 3, 2026, 16:45 | 71 | 57 | 131072 | 0 |
| May 3, 2026, 16:30 | 69 | 57 | 131072 | 0 |
| May 3, 2026, 16:15 | 68 | 57 | 131072 | 0 |
| May 3, 2026, 16:00 | 68 | 57 | 131072 | 0 |
| May 3, 2026, 15:45 | 66 | 57 | 131072 | 0 |
| May 3, 2026, 15:30 | 66 | 57 | 131072 | 0 |
| May 3, 2026, 15:15 | 65 | 57 | 131072 | 0 |
| May 3, 2026, 15:00 | 65 | 57 | 131072 | 0 |
| May 3, 2026, 14:45 | 63 | 57 | 131072 | 0 |
| May 3, 2026, 14:30 | 63 | 57 | 131072 | 0 |
| May 3, 2026, 14:15 | 62 | 57 | 131072 | 0 |
| May 3, 2026, 14:00 | 62 | 57 | 131072 | 0 |
| May 3, 2026, 13:45 | 61 | 57 | 131072 | 0 |
| May 3, 2026, 13:30 | 61 | 57 | 131072 | 0 |
| May 3, 2026, 13:15 | 60 | 57 | 131072 | 0 |
| May 3, 2026, 13:00 | 61 | 57 | 131072 | 0 |
| May 3, 2026, 12:45 | 60 | 57 | 131072 | 0 |
| May 3, 2026, 12:30 | 61 | 57 | 131072 | 0 |
| May 3, 2026, 12:15 | 59 | 57 | 131072 | 0 |
| May 3, 2026, 12:00 | 57 | 57 | 131072 | 0 |
| May 3, 2026, 11:45 | 56 | 57 | 131072 | 0 |
| May 3, 2026, 11:30 | 57 | 57 | 131072 | 0 |
| May 3, 2026, 11:15 | 57 | 57 | 131072 | 0 |
| May 3, 2026, 11:00 | 57 | 57 | 131072 | 0 |
| May 3, 2026, 10:45 | 57 | 57 | 131072 | 0 |
| May 3, 2026, 10:30 | 57 | 57 | 131072 | 0 |
| May 3, 2026, 10:15 | 57 | 57 | 131072 | 0 |
| May 3, 2026, 10:00 | 57 | 57 | 131072 | 0 |
| May 3, 2026, 09:45 | 57 | 57 | 131072 | 0 |
| May 3, 2026, 09:30 | 56 | 57 | 131072 | 0 |
| May 3, 2026, 09:15 | 57 | 57 | 131072 | 0 |
| May 3, 2026, 09:00 | 57 | 57 | 131072 | 0 |
| May 3, 2026, 08:45 | 57 | 57 | 131072 | 0 |
| May 3, 2026, 08:30 | 56 | 57 | 131072 | 0 |
| May 3, 2026, 08:15 | 56 | 57 | 131072 | 0 |
| May 3, 2026, 08:00 | 56 | 57 | 131072 | 0 |
| May 3, 2026, 07:45 | 57 | 57 | 131072 | 0 |
| May 3, 2026, 07:30 | 57 | 57 | 131072 | 0 |
| May 3, 2026, 07:15 | 57 | 57 | 131072 | 0 |
| May 3, 2026, 07:00 | 57 | 57 | 131072 | 0 |
| May 3, 2026, 06:45 | 58 | 57 | 131072 | 0 |
| May 3, 2026, 06:30 | 57 | 57 | 131072 | 0 |
| May 3, 2026, 06:15 | 57 | 57 | 131072 | 0 |
| May 3, 2026, 06:00 | 57 | 57 | 131072 | 0 |
| May 3, 2026, 05:45 | 57 | 57 | 131072 | 0 |
| May 3, 2026, 05:30 | 57 | 57 | 131072 | 0 |
| May 3, 2026, 05:15 | 57 | 57 | 131072 | 0 |
| May 3, 2026, 05:00 | 58 | 57 | 131072 | 0 |
| May 3, 2026, 04:45 | 58 | 57 | 131072 | 0 |
| May 3, 2026, 04:30 | 58 | 57 | 131072 | 0 |
| May 3, 2026, 04:15 | 58 | 57 | 131072 | 0 |
| May 3, 2026, 04:00 | 59 | 57 | 131072 | 0 |
| May 3, 2026, 03:45 | 60 | 57 | 131072 | 0 |
| May 3, 2026, 03:30 | 60 | 57 | 131072 | 0 |
| May 3, 2026, 03:15 | 60 | 57 | 131072 | 0 |
| May 3, 2026, 03:00 | 59 | 57 | 131072 | 0 |
| May 3, 2026, 02:45 | 58 | 57 | 131072 | 0 |
| May 3, 2026, 02:30 | 59 | 57 | 131072 | 0 |
| May 3, 2026, 02:15 | 59 | 57 | 131072 | 0 |
| May 3, 2026, 02:00 | 60 | 57 | 131072 | 0 |
| May 3, 2026, 01:45 | 60 | 57 | 131072 | 0 |
| May 3, 2026, 01:30 | 59 | 57 | 131072 | 0 |
| May 3, 2026, 01:15 | 60 | 57 | 131072 | 0 |
| May 3, 2026, 01:00 | 61 | 57 | 131072 | 0 |
| May 3, 2026, 00:45 | 61 | 57 | 131072 | 0 |
| May 3, 2026, 00:30 | 62 | 57 | 131072 | 0 |
| May 3, 2026, 00:15 | 62 | 57 | 131072 | 0 |
| May 2, 2026, 24:00 | 63 | 57 | 131072 | 0 |
| May 2, 2026, 23:45 | 63 | 57 | 131072 | 0 |
| May 2, 2026, 23:30 | 63 | 57 | 131072 | 0 |
| May 2, 2026, 23:15 | 63 | 57 | 131072 | 0 |
| May 2, 2026, 23:00 | 64 | 57 | 131072 | 0 |
| May 2, 2026, 22:45 | 64 | 57 | 131072 | 0 |
| May 2, 2026, 22:30 | 64 | 57 | 131072 | 0 |
| May 2, 2026, 22:15 | 64 | 57 | 131072 | 0 |
| May 2, 2026, 22:00 | 64 | 57 | 131072 | 0 |
| May 2, 2026, 21:45 | 64 | 57 | 131072 | 0 |
| May 2, 2026, 21:30 | 63 | 57 | 131072 | 0 |
| May 2, 2026, 21:15 | 63 | 57 | 131072 | 0 |
| May 2, 2026, 21:00 | 63 | 57 | 131072 | 0 |
| May 2, 2026, 20:45 | 64 | 57 | 131072 | 0 |
| May 2, 2026, 20:30 | 63 | 57 | 131072 | 0 |
| May 2, 2026, 20:15 | 62 | 57 | 131072 | 0 |
| May 2, 2026, 20:00 | 62 | 57 | 131072 | 0 |
| May 2, 2026, 19:45 | 61 | 57 | 131072 | 0 |
| May 2, 2026, 19:30 | 62 | 57 | 131072 | 0 |
| May 2, 2026, 19:15 | 61 | 57 | 131072 | 0 |
| May 2, 2026, 19:00 | 62 | 57 | 131072 | 0 |
| May 2, 2026, 18:45 | 61 | 57 | 131072 | 0 |
| May 2, 2026, 18:30 | 60 | 57 | 131072 | 0 |
| May 2, 2026, 18:15 | 60 | 56 | 131072 | 0 |
| May 2, 2026, 18:00 | 59 | 56 | 131072 | 0 |
| May 2, 2026, 17:45 | 60 | 56 | 131072 | 0 |
| May 2, 2026, 17:30 | 60 | 56 | 131072 | 0 |
| May 2, 2026, 17:15 | 59 | 56 | 131072 | 0 |
| May 2, 2026, 17:00 | 60 | 56 | 131072 | 0 |
| May 2, 2026, 16:45 | 59 | 56 | 131072 | 0 |
| May 2, 2026, 16:30 | 59 | 56 | 131072 | 0 |
| May 2, 2026, 16:15 | 58 | 56 | 131072 | 0 |
| May 2, 2026, 16:00 | 57 | 56 | 131072 | 0 |
| May 2, 2026, 15:45 | 57 | 56 | 131072 | 0 |
| May 2, 2026, 15:30 | 55 | 56 | 131072 | 0 |
| May 2, 2026, 15:15 | 55 | 56 | 131072 | 0 |
| May 2, 2026, 15:00 | 54 | 56 | 131072 | 0 |
| May 2, 2026, 14:45 | 52 | 56 | 131072 | 0 |
| May 2, 2026, 14:30 | 52 | 56 | 131072 | 0 |
| May 2, 2026, 14:15 | 53 | 56 | 131072 | 0 |
| May 2, 2026, 14:00 | 53 | 56 | 131072 | 0 |
| May 2, 2026, 13:45 | 51 | 56 | 131072 | 0 |
| May 2, 2026, 13:30 | 48 | 56 | 131072 | 0 |
| May 2, 2026, 13:15 | 46 | 56 | 131072 | 0 |
| May 2, 2026, 13:00 | 44 | 56 | 131072 | 0 |
| May 2, 2026, 12:45 | 43 | 56 | 131072 | 0 |
| May 2, 2026, 12:30 | 42 | 56 | 131072 | 0 |
| May 2, 2026, 12:15 | 40 | 56 | 131072 | 0 |
| May 2, 2026, 12:00 | 35 | 56 | 131072 | 0 |
| May 2, 2026, 11:45 | 33 | 56 | 131072 | 0 |
| May 2, 2026, 11:30 | 32 | 56 | 131072 | 0 |
| May 2, 2026, 11:15 | 32 | 56 | 131072 | 0 |
| May 2, 2026, 11:00 | 32 | 56 | 131072 | 0 |
| May 2, 2026, 10:45 | 34 | 56 | 131072 | 0 |
| May 2, 2026, 10:30 | 36 | 56 | 131072 | 0 |
| May 2, 2026, 10:15 | 36 | 56 | 131072 | 0 |
| May 2, 2026, 10:00 | 33 | 56 | 131072 | 0 |
| May 2, 2026, 09:45 | 34 | 56 | 131072 | 0 |
| May 2, 2026, 09:30 | 34 | 57 | 131072 | 0 |
| May 2, 2026, 09:15 | 33 | 57 | 131072 | 0 |
| May 2, 2026, 09:00 | 34 | 57 | 131072 | 0 |
| May 2, 2026, 08:45 | 35 | 57 | 131072 | 0 |
| May 2, 2026, 08:30 | 35 | 57 | 131072 | 0 |
| May 2, 2026, 08:15 | 35 | 57 | 131072 | 0 |
| May 2, 2026, 08:00 | 35 | 57 | 131072 | 0 |
| May 2, 2026, 07:45 | 36 | 57 | 131072 | 0 |
| May 2, 2026, 07:30 | 37 | 57 | 131072 | 0 |
| May 2, 2026, 07:15 | 38 | 56 | 131072 | 0 |
| May 2, 2026, 07:00 | 38 | 56 | 131072 | 0 |
| May 2, 2026, 06:45 | 38 | 57 | 131072 | 0 |
| May 2, 2026, 06:30 | 39 | 57 | 131072 | 0 |
| May 2, 2026, 06:15 | 39 | 57 | 131072 | 0 |
| May 2, 2026, 06:00 | 39 | 57 | 131072 | 0 |
| May 2, 2026, 05:45 | 39 | 57 | 131072 | 0 |
| May 2, 2026, 05:30 | 40 | 57 | 131072 | 0 |
| May 2, 2026, 05:15 | 40 | 57 | 131072 | 0 |
| May 2, 2026, 05:00 | 40 | 57 | 131072 | 0 |
| May 2, 2026, 04:45 | 41 | 57 | 131072 | 0 |
| May 2, 2026, 04:30 | 41 | 57 | 131072 | 0 |
| May 2, 2026, 04:15 | 42 | 57 | 131072 | 0 |
| May 2, 2026, 04:00 | 43 | 58 | 131072 | 0 |
| May 2, 2026, 03:45 | 43 | 58 | 131072 | 0 |
| May 2, 2026, 03:30 | 44 | 58 | 131072 | 0 |
| May 2, 2026, 03:15 | 44 | 58 | 131072 | 0 |
| May 2, 2026, 03:00 | 45 | 58 | 131072 | 0 |
| May 2, 2026, 02:45 | 45 | 58 | 131072 | 0 |
| May 2, 2026, 02:30 | 45 | 58 | 131072 | 0 |
| May 2, 2026, 02:15 | 46 | 58 | 131072 | 0 |
| May 2, 2026, 02:00 | 46 | 58 | 131072 | 0 |
| May 2, 2026, 01:45 | 47 | 58 | 131072 | 0 |
| May 2, 2026, 01:30 | 48 | 58 | 131072 | 0 |
| May 2, 2026, 01:15 | 49 | 58 | 131072 | 0 |
| May 2, 2026, 01:00 | 50 | 58 | 131072 | 0 |
| May 2, 2026, 00:45 | 51 | 58 | 131072 | 0 |
| May 2, 2026, 00:30 | 51 | 58 | 131072 | 0 |
| May 2, 2026, 00:15 | 51 | 58 | 131072 | 0 |
| May 1, 2026, 24:00 | 52 | 57 | 131072 | 0 |
| May 1, 2026, 23:45 | 51 | 57 | 131072 | 0 |
| May 1, 2026, 23:30 | 52 | 57 | 131072 | 0 |
| May 1, 2026, 23:15 | 53 | 57 | 131072 | 0 |
| May 1, 2026, 23:00 | 53 | 57 | 131072 | 0 |
| May 1, 2026, 22:45 | 52 | 57 | 131072 | 0 |
| May 1, 2026, 22:30 | 52 | 57 | 131072 | 0 |
| May 1, 2026, 22:15 | 52 | 56 | 131072 | 0 |
| May 1, 2026, 22:00 | 52 | 56 | 131072 | 0 |
| May 1, 2026, 21:45 | 51 | 56 | 131072 | 0 |
| May 1, 2026, 21:30 | 52 | 56 | 131072 | 0 |
| May 1, 2026, 21:15 | 52 | 57 | 131072 | 0 |
| May 1, 2026, 21:00 | 54 | 57 | 131072 | 0 |
| May 1, 2026, 20:45 | 52 | 56 | 131072 | 0 |
| May 1, 2026, 20:30 | 51 | 56 | 131072 | 0 |
| May 1, 2026, 20:15 | 51 | 56 | 131072 | 0 |
| May 1, 2026, 20:00 | 51 | 56 | 131072 | 0 |
| May 1, 2026, 19:45 | 53 | 56 | 131072 | 0 |
| May 1, 2026, 19:30 | 52 | 56 | 131072 | 0 |
| May 1, 2026, 19:15 | 51 | 56 | 131072 | 0 |
| May 1, 2026, 19:00 | 52 | 56 | 131072 | 0 |
| May 1, 2026, 18:45 | 52 | 56 | 131072 | 0 |
| May 1, 2026, 18:30 | 51 | 56 | 131072 | 0 |
| May 1, 2026, 18:15 | 51 | 56 | 131072 | 0 |
| May 1, 2026, 18:00 | 50 | 56 | 131072 | 0 |
| May 1, 2026, 17:45 | 50 | 56 | 131072 | 0 |
| May 1, 2026, 17:30 | 50 | 56 | 131072 | 0 |
| May 1, 2026, 17:15 | 50 | 56 | 131072 | 0 |
| May 1, 2026, 17:00 | 49 | 56 | 131072 | 0 |
| May 1, 2026, 16:45 | 50 | 56 | 131072 | 0 |
| May 1, 2026, 16:30 | 49 | 56 | 131072 | 0 |
| May 1, 2026, 16:15 | 50 | 56 | 131072 | 0 |
| May 1, 2026, 16:00 | 51 | 56 | 131072 | 0 |
| May 1, 2026, 15:45 | 49 | 56 | 131072 | 0 |
| May 1, 2026, 15:30 | 47 | 55 | 131072 | 0 |
| May 1, 2026, 15:15 | 46 | 55 | 131072 | 0 |
| May 1, 2026, 15:00 | 46 | 55 | 131072 | 0 |
| May 1, 2026, 14:45 | 46 | 55 | 131072 | 0 |
| May 1, 2026, 14:30 | 45 | 55 | 131072 | 0 |
| May 1, 2026, 14:15 | 45 | 55 | 131072 | 0 |
| May 1, 2026, 14:00 | 44 | 55 | 131072 | 0 |
| May 1, 2026, 13:45 | 43 | 55 | 131072 | 0 |
| May 1, 2026, 13:30 | 45 | 55 | 131072 | 0 |
| May 1, 2026, 13:15 | 44 | 55 | 131072 | 0 |
| May 1, 2026, 13:00 | 42 | 55 | 131072 | 0 |
| May 1, 2026, 12:45 | 40 | 55 | 131072 | 0 |
| May 1, 2026, 12:30 | 39 | 55 | 131072 | 0 |
| May 1, 2026, 12:15 | 38 | 56 | 131072 | 0 |
| May 1, 2026, 12:00 | 37 | 56 | 131072 | 0 |
| May 1, 2026, 11:45 | 36 | 56 | 131072 | 0 |
| May 1, 2026, 11:30 | 36 | 56 | 131072 | 0 |
| May 1, 2026, 11:15 | 36 | 56 | 131072 | 0 |
| May 1, 2026, 11:00 | 36 | 56 | 131072 | 0 |
| May 1, 2026, 10:45 | 36 | 56 | 131072 | 0 |
| May 1, 2026, 10:30 | 37 | 56 | 131072 | 0 |
| May 1, 2026, 10:15 | 37 | 56 | 131072 | 0 |
| May 1, 2026, 10:00 | 37 | 56 | 131072 | 0 |
| May 1, 2026, 09:45 | 37 | 56 | 131072 | 0 |
| May 1, 2026, 09:30 | 37 | 56 | 131072 | 0 |
| May 1, 2026, 09:15 | 36 | 56 | 131072 | 0 |
| May 1, 2026, 09:00 | 35 | 56 | 131072 | 0 |
| May 1, 2026, 08:45 | 36 | 56 | 131072 | 0 |
| May 1, 2026, 08:30 | 37 | 56 | 131072 | 0 |
| May 1, 2026, 08:15 | 37 | 56 | 131072 | 0 |
| May 1, 2026, 08:00 | 36 | 56 | 131072 | 0 |
| May 1, 2026, 07:45 | 37 | 56 | 131072 | 0 |
| May 1, 2026, 07:30 | 37 | 56 | 131072 | 0 |
| May 1, 2026, 07:15 | 37 | 56 | 131072 | 0 |
| May 1, 2026, 07:00 | 37 | 56 | 131072 | 0 |
| May 1, 2026, 06:45 | 37 | 56 | 131072 | 0 |
| May 1, 2026, 06:30 | 37 | 56 | 131072 | 0 |
| May 1, 2026, 06:15 | 37 | 56 | 131072 | 0 |
| May 1, 2026, 06:00 | 38 | 56 | 131072 | 0 |
| May 1, 2026, 05:45 | 38 | 56 | 131072 | 0 |
| May 1, 2026, 05:30 | 38 | 56 | 131072 | 0 |
| May 1, 2026, 05:15 | 39 | 56 | 131072 | 0 |
| May 1, 2026, 05:00 | 39 | 56 | 131072 | 0 |
| May 1, 2026, 04:45 | 40 | 56 | 131072 | 0 |
| May 1, 2026, 04:30 | 40 | 56 | 131072 | 0 |
| May 1, 2026, 04:15 | 41 | 56 | 131072 | 0 |
| May 1, 2026, 04:00 | 41 | 56 | 131072 | 0 |
| May 1, 2026, 03:45 | 41 | 56 | 131072 | 0 |
| May 1, 2026, 03:30 | 42 | 56 | 131072 | 0 |
| May 1, 2026, 03:15 | 41 | 56 | 131072 | 0 |
| May 1, 2026, 03:00 | 41 | 56 | 131072 | 0 |
| May 1, 2026, 02:45 | 41 | 56 | 131072 | 0 |
| May 1, 2026, 02:30 | 42 | 56 | 131072 | 0 |
| May 1, 2026, 02:15 | 44 | 56 | 131072 | 0 |
| May 1, 2026, 02:00 | 45 | 56 | 131072 | 0 |
| May 1, 2026, 01:45 | 46 | 56 | 131072 | 0 |
| May 1, 2026, 01:30 | 46 | 56 | 131072 | 0 |
| May 1, 2026, 01:15 | 46 | 56 | 131072 | 0 |
| May 1, 2026, 01:00 | 47 | 56 | 131072 | 0 |
| May 1, 2026, 00:45 | 48 | 56 | 131072 | 0 |
| May 1, 2026, 00:30 | 48 | 56 | 131072 | 0 |
| May 1, 2026, 00:15 | 49 | 56 | 131072 | 0 |
| April 30, 2026, 24:00 | 49 | 56 | 131072 | 0 |
| April 30, 2026, 23:45 | 50 | 56 | 131072 | 0 |
| April 30, 2026, 23:30 | 49 | 56 | 131072 | 0 |
| April 30, 2026, 23:15 | 50 | 56 | 131072 | 0 |
| April 30, 2026, 23:00 | 50 | 56 | 131072 | 0 |
| April 30, 2026, 22:45 | 51 | 56 | 131072 | 0 |
| April 30, 2026, 22:30 | 51 | 56 | 131072 | 0 |
| April 30, 2026, 22:15 | 52 | 56 | 131072 | 0 |
| April 30, 2026, 22:00 | 52 | 56 | 131072 | 0 |
| April 30, 2026, 21:45 | 52 | 56 | 131072 | 0 |
| April 30, 2026, 21:30 | 52 | 56 | 131072 | 0 |
| April 30, 2026, 21:15 | 52 | 56 | 131072 | 0 |
| April 30, 2026, 21:00 | 52 | 56 | 131072 | 0 |
| April 30, 2026, 20:45 | 52 | 56 | 131072 | 0 |
| April 30, 2026, 20:30 | 53 | 56 | 131072 | 0 |
| April 30, 2026, 20:15 | 53 | 56 | 131072 | 0 |
| April 30, 2026, 20:00 | 54 | 56 | 131072 | 0 |
| April 30, 2026, 19:45 | 53 | 56 | 131072 | 0 |
| April 30, 2026, 19:30 | 53 | 56 | 131072 | 0 |
| April 30, 2026, 19:15 | 56 | 56 | 131072 | 0 |
| April 30, 2026, 19:00 | 56 | 56 | 131072 | 0 |
| April 30, 2026, 18:45 | 56 | 56 | 131072 | 0 |
| April 30, 2026, 18:30 | 54 | 56 | 131072 | 0 |
| April 30, 2026, 18:15 | 53 | 56 | 131072 | 0 |
| April 30, 2026, 18:00 | 55 | 56 | 131072 | 0 |
| April 30, 2026, 17:45 | 53 | 56 | 131072 | 0 |
| April 30, 2026, 17:30 | 53 | 56 | 131072 | 0 |
| April 30, 2026, 17:15 | 54 | 56 | 131072 | 0 |
| April 30, 2026, 17:00 | 54 | 56 | 131072 | 0 |
| April 30, 2026, 16:45 | 51 | 56 | 131072 | 0 |
| April 30, 2026, 16:30 | 58 | 56 | 131072 | 0 |
| April 30, 2026, 16:15 | 56 | 56 | 131072 | 0 |
| April 30, 2026, 16:00 | 53 | 56 | 131072 | 0 |
| April 30, 2026, 15:45 | 53 | 56 | 131072 | 0 |
| April 30, 2026, 15:30 | 52 | 56 | 131072 | 0 |
| April 30, 2026, 15:15 | 51 | 56 | 131072 | 0 |
| April 30, 2026, 15:00 | 49 | 56 | 131072 | 0 |
| April 30, 2026, 14:45 | 46 | 56 | 131072 | 0 |
| April 30, 2026, 14:30 | 48 | 56 | 131072 | 0 |
| April 30, 2026, 14:15 | 49 | 56 | 131072 | 0 |
| April 30, 2026, 14:00 | 47 | 56 | 131072 | 0 |
| April 30, 2026, 13:45 | 43 | 56 | 131072 | 0 |
| April 30, 2026, 13:30 | 41 | 56 | 131072 | 0 |
| April 30, 2026, 13:15 | 40 | 56 | 131072 | 0 |
| April 30, 2026, 13:00 | 39 | 56 | 131072 | 0 |
| April 30, 2026, 12:45 | 39 | 56 | 131072 | 0 |
| April 30, 2026, 12:30 | 39 | 56 | 131072 | 0 |
| April 30, 2026, 12:15 | 37 | 56 | 131072 | 0 |
| April 30, 2026, 12:00 | 37 | 56 | 131072 | 0 |
| April 30, 2026, 11:45 | 37 | 56 | 131072 | 0 |
| April 30, 2026, 11:30 | 37 | 56 | 131072 | 0 |
| April 30, 2026, 11:15 | 37 | 56 | 131072 | 0 |
| April 30, 2026, 11:00 | 36 | 56 | 131072 | 0 |
| April 30, 2026, 10:45 | 36 | 56 | 131072 | 0 |
| April 30, 2026, 10:30 | 36 | 56 | 131072 | 0 |
| April 30, 2026, 10:15 | 36 | 56 | 131072 | 0 |
| April 30, 2026, 10:00 | 35 | 56 | 131072 | 0 |
| April 30, 2026, 09:45 | 35 | 56 | 131072 | 0 |
| April 30, 2026, 09:30 | 35 | 56 | 131072 | 0 |
| April 30, 2026, 09:15 | 36 | 56 | 131072 | 0 |
| April 30, 2026, 09:00 | 36 | 56 | 131072 | 0 |